Observation data for Estelline on 05/24/2020      Previous  Date  Next       Current Mesonet Observations  Soil Data  Daily Summary Page  Observations in Plain Language
KES1 240500Z 13013G20KT 20/14 A2973 RMK A01 T02040139  RH  066%=      5-min Rain = 0
KES1 240501Z 13016G21KT 21/14 A2973 RMK A01 T02050135  RH  064%=      5-min Rain = 0
KES1 240502Z 13013KT 21/14 A2973 RMK A01 T02070135  RH  064%=      5-min Rain = 0
KES1 240503Z 13015KT 21/14 A2973 RMK A01 T02070135  RH  063%=      5-min Rain = 0
KES1 240504Z 13013G18KT 21/14 A2973 RMK A01 T02080135  RH  063%=      5-min Rain = 0
KES1 240505Z 13013G19KT 21/14 A2973 RMK A01 T02080135  RH  063%=      5-min Rain = 0
KES1 240506Z 14015G20KT 21/14 A2973 RMK A01 T02090135  RH  063%=      5-min Rain = 0
KES1 240507Z 13016KT 21/14 A2973 RMK A01 T02080135  RH  063%=      5-min Rain = 0
KES1 240508Z 13014KT 21/14 A2973 RMK A01 T02080136  RH  063%=      5-min Rain = 0
KES1 240509Z 13013KT 21/14 A2973 RMK A01 T02080137  RH  064%=      5-min Rain = 0
KES1 240510Z 13015KT 21/14 A2973 RMK A01 T02080137  RH  064%=      5-min Rain = 0
KES1 240511Z 13013KT 21/14 A2973 RMK A01 T02070136  RH  064%=      5-min Rain = 0
KES1 240512Z 13016KT 21/14 A2973 RMK A01 T02070135  RH  063%=      5-min Rain = 0
KES1 240513Z 13017KT 21/14 A2973 RMK A01 T02080135  RH  063%=      5-min Rain = 0
KES1 240514Z 13018KT 21/13 A2973 RMK A01 T02080134  RH  062%=      5-min Rain = 0
KES1 240515Z 13014G23KT 21/13 A2973 RMK A01 T02090133  RH  062%=      5-min Rain = 0
KES1 240516Z 13013KT 21/13 A2973 RMK A01 T02090134  RH  062%=      5-min Rain = 0
KES1 240517Z 13018KT 21/13 A2973 RMK A01 T02090134  RH  062%=      5-min Rain = 0
KES1 240518Z 13018G23KT 21/13 A2973 RMK A01 T02090131  RH  061%=      5-min Rain = 0
KES1 240519Z 14016KT 21/13 A2973 RMK A01 T02100131  RH  061%=      5-min Rain = 0
KES1 240520Z 13015G20KT 21/13 A2973 RMK A01 T02110131  RH  060%=      5-min Rain = 0
KES1 240521Z 14013KT 21/13 A2973 RMK A01 T02110132  RH  061%=      5-min Rain = 0
KES1 240522Z 14017KT 21/13 A2973 RMK A01 T02110132  RH  061%=      5-min Rain = 0
KES1 240523Z 13016KT 21/13 A2974 RMK A01 T02110131  RH  060%=      5-min Rain = 0
KES1 240524Z 14012KT 21/13 A2974 RMK A01 T02110131  RH  060%=      5-min Rain = 0
KES1 240525Z 14014G19KT 21/13 A2974 RMK A01 T02110131  RH  060%=      5-min Rain = 0
KES1 240526Z 14014KT 21/13 A2974 RMK A01 T02110131  RH  060%=      5-min Rain = 0
KES1 240527Z 15012KT 21/13 A2974 RMK A01 T02110131  RH  060%=      5-min Rain = 0
KES1 240528Z 14015G20KT 21/13 A2974 RMK A01 T02110131  RH  060%=      5-min Rain = 0
KES1 240529Z 13015KT 21/13 A2973 RMK A01 T02110131  RH  060%=      5-min Rain = 0
KES1 240530Z 14011KT 21/13 A2973 RMK A01 T02110131  RH  060%=      5-min Rain = 0
KES1 240531Z 13015G21KT 21/13 A2973 RMK A01 T02110131  RH  060%=      5-min Rain = 0
KES1 240532Z 14015KT 21/13 A2973 RMK A01 T02110129  RH  060%=      5-min Rain = 0
KES1 240533Z 14011KT 21/13 A2974 RMK A01 T02110130  RH  060%=      5-min Rain = 0
KES1 240534Z 14010KT 21/13 A2974 RMK A01 T02120131  RH  060%=      5-min Rain = 0
KES1 240535Z 14009KT 21/13 A2974 RMK A01 T02110131  RH  060%=      5-min Rain = 0
KES1 240536Z 15008KT 21/13 A2974 RMK A01 T02100131  RH  060%=      5-min Rain = 0
KES1 240537Z 13008KT 21/13 A2974 RMK A01 T02100131  RH  061%=      5-min Rain = 0
KES1 240538Z 12008KT 21/13 A2974 RMK A01 T02090131  RH  061%=      5-min Rain = 0
KES1 240539Z 12010KT 21/13 A2974 RMK A01 T02090131  RH  061%=      5-min Rain = 0
KES1 240540Z 10008KT 21/13 A2974 RMK A01 T02090130  RH  061%=      5-min Rain = 0
KES1 240541Z 11008KT 21/13 A2974 RMK A01 T02090130  RH  060%=      5-min Rain = 0
KES1 240542Z 13004KT 21/13 A2974 RMK A01 T02090130  RH  060%=      5-min Rain = 0
KES1 240543Z 15003KT 21/13 A2975 RMK A01 T02100130  RH  060%=      5-min Rain = 0
KES1 240544Z 20003KT 21/13 A2975 RMK A01 T02100130  RH  060%=      5-min Rain = 0
KES1 240545Z 21003KT 21/13 A2975 RMK A01 T02100132  RH  061%=      5-min Rain = 0
KES1 240546Z 21004KT 21/13 A2975 RMK A01 T02090132  RH  061%=      5-min Rain = 0
KES1 240547Z 21003KT 21/13 A2975 RMK A01 T02080131  RH  061%=      5-min Rain = 0
KES1 240548Z 20002KT 21/13 A2975 RMK A01 T02080131  RH  062%=      5-min Rain = 0
KES1 240549Z 19002KT 21/13 A2975 RMK A01 T02070131  RH  062%=      5-min Rain = 0
KES1 240550Z 18003KT 21/13 A2975 RMK A01 T02070131  RH  062%=      5-min Rain = 0
KES1 240551Z 21003KT 21/13 A2975 RMK A01 T02070131  RH  062%=      5-min Rain = 0
KES1 240552Z 20004KT 21/13 A2975 RMK A01 T02060131  RH  062%=      5-min Rain = 0
KES1 240553Z 20003KT 21/13 A2975 RMK A01 T02060132  RH  062%=      5-min Rain = 0
KES1 240554Z 20004KT 21/13 A2975 RMK A01 T02050131  RH  063%=      5-min Rain = 0
KES1 240555Z 23002KT 20/13 A2976 RMK A01 T02040130  RH  063%=      5-min Rain = 0
KES1 240556Z 25001KT 20/13 A2976 RMK A01 T02040131  RH  063%=      5-min Rain = 0
KES1 240557Z 24002KT 20/13 A2976 RMK A01 T02040132  RH  063%=      5-min Rain = 0
KES1 240558Z 22003KT 20/13 A2976 RMK A01 T02030132  RH  063%=      5-min Rain = 0
KES1 240559Z 21003KT 20/13 A2975 RMK A01 T02030132  RH  064%=      5-min Rain = 0
KES1 240600Z 20003KT 20/13 A2976 RMK A01 T02010132  RH  065%=      5-min Rain = 0
KES1 240601Z 19000KT 20/13 A2976 RMK A01 T02000132  RH  065%=      5-min Rain = 0
KES1 240602Z 15001KT 20/13 A2976 RMK A01 T02000132  RH  065%=      5-min Rain = 0
KES1 240603Z 13005KT 20/13 A2976 RMK A01 T01990128  RH  064%=      5-min Rain = 0
KES1 240604Z 12002KT 20/13 A2976 RMK A01 T02020129  RH  063%=      5-min Rain = 0
KES1 240605Z 21001KT 20/13 A2976 RMK A01 T02020130  RH  063%=      5-min Rain = 0
KES1 240606Z 21002KT 20/13 A2976 RMK A01 T02020130  RH  063%=      5-min Rain = 0
KES1 240607Z 22004KT 20/13 A2977 RMK A01 T02020133  RH  065%=      5-min Rain = 0
KES1 240608Z 24005KT 20/13 A2977 RMK A01 T02000133  RH  066%=      5-min Rain = 0
KES1 240609Z 24007KT 20/13 A2977 RMK A01 T01980133  RH  066%=      5-min Rain = 0
KES1 240610Z 24007KT 20/13 A2978 RMK A01 T01970134  RH  067%=      5-min Rain = 0
KES1 240611Z 25006KT 20/13 A2978 RMK A01 T01960134  RH  068%=      5-min Rain = 0
KES1 240612Z 27005KT 20/14 A2978 RMK A01 T01950135  RH  068%=      5-min Rain = 0
KES1 240613Z 29005KT 20/14 A2978 RMK A01 T01950135  RH  068%=      5-min Rain = 0
KES1 240614Z 29006KT 19/14 A2979 RMK A01 T01940135  RH  069%=      5-min Rain = 0
KES1 240615Z 28007KT 19/14 A2979 RMK A01 T01940136  RH  069%=      5-min Rain = 0
KES1 240616Z 25009KT 19/14 A298 RMK A01 T01940135  RH  069%=      5-min Rain = 0
KES1 240617Z 24012KT 19/14 A298 RMK A01 T01930136  RH  069%=      5-min Rain = 0
KES1 240618Z 24011KT 19/14 A2981 RMK A01 T01930136  RH  069%=      5-min Rain = 0
KES1 240619Z 24011KT 19/14 A2981 RMK A01 T01930136  RH  069%=      5-min Rain = 0
KES1 240620Z 24009KT 19/14 A2981 RMK A01 T01940135  RH  069%=      5-min Rain = 0
KES1 240621Z 24007KT 19/14 A298 RMK A01 T01940135  RH  068%=      5-min Rain = 0
KES1 240622Z 24002KT 20/13 A298 RMK A01 T01950134  RH  068%=      5-min Rain = 0
KES1 240623Z 26001KT 20/13 A298 RMK A01 T01950133  RH  067%=      5-min Rain = 0
KES1 240624Z 07001KT 20/13 A298 RMK A01 T01960134  RH  067%=      5-min Rain = 0
KES1 240625Z 13002KT 20/14 A298 RMK A01 T01960135  RH  068%=      5-min Rain = 0
KES1 240626Z 23003KT 20/14 A298 RMK A01 T01950135  RH  068%=      5-min Rain = 0
KES1 240627Z 22006KT 19/14 A298 RMK A01 T01940136  RH  069%=      5-min Rain = 0
KES1 240628Z 22008KT 19/14 A298 RMK A01 T01930136  RH  070%=      5-min Rain = 0
KES1 240629Z 22007KT 19/14 A298 RMK A01 T01930135  RH  069%=      5-min Rain = 0
KES1 240630Z 22007KT 19/14 A298 RMK A01 T01930135  RH  069%=      5-min Rain = 0
KES1 240631Z 23005KT 19/14 A298 RMK A01 T01930135  RH  069%=      5-min Rain = 0
KES1 240632Z 24004KT 19/14 A298 RMK A01 T01930135  RH  069%=      5-min Rain = 0
KES1 240633Z 25004KT 19/14 A298 RMK A01 T01930135  RH  069%=      5-min Rain = 0
KES1 240634Z 25004KT 19/14 A298 RMK A01 T01930136  RH  069%=      5-min Rain = 0
KES1 240635Z 23004KT 19/14 A298 RMK A01 T01930135  RH  069%=      5-min Rain = 0
KES1 240636Z 23004KT 19/14 A2981 RMK A01 T01930136  RH  070%=      5-min Rain = 0
KES1 240637Z 21005KT 19/14 A2981 RMK A01 T01920136  RH  070%=      5-min Rain = 0
KES1 240638Z 21006KT 19/14 A2981 RMK A01 T01910136  RH  070%=      5-min Rain = 0
KES1 240639Z 21005KT 19/14 A2981 RMK A01 T01910136  RH  070%=      5-min Rain = 0
KES1 240640Z 20005KT 19/14 A2982 RMK A01 T01910135  RH  070%=      5-min Rain = 0
KES1 240641Z 20003KT 19/14 A2982 RMK A01 T01910135  RH  070%=      5-min Rain = 0
KES1 240642Z 18002KT 19/14 A2981 RMK A01 T01910135  RH  070%=      5-min Rain = 0
KES1 240643Z 19003KT 19/14 A2981 RMK A01 T01910136  RH  070%=      5-min Rain = 0
KES1 240644Z 19004KT 19/14 A2982 RMK A01 T01910136  RH  070%=      5-min Rain = 0
KES1 240645Z 19004KT 19/14 A2982 RMK A01 T01910135  RH  070%=      5-min Rain = 0
KES1 240646Z 20005KT 19/14 A2982 RMK A01 T01910136  RH  070%=      5-min Rain = 0
KES1 240647Z 20005KT 19/14 A2982 RMK A01 T01900137  RH  071%=      5-min Rain = 0
KES1 240648Z 20004KT 19/14 A2982 RMK A01 T01900136  RH  071%=      5-min Rain = 0
KES1 240649Z 20004KT 19/14 A2982 RMK A01 T01900136  RH  071%=      5-min Rain = 0
KES1 240650Z 20004KT 19/14 A2982 RMK A01 T01900136  RH  071%=      5-min Rain = 0
KES1 240651Z 18004KT 19/14 A2982 RMK A01 T01900136  RH  071%=      5-min Rain = 0
KES1 240652Z 14003KT 19/14 A2982 RMK A01 T01900135  RH  071%=      5-min Rain = 0
KES1 240653Z 11002KT 19/14 A2981 RMK A01 T01900137  RH  071%=      5-min Rain = 0
KES1 240654Z 09003KT 19/14 A2982 RMK A01 T01890135  RH  071%=      5-min Rain = 0
KES1 240655Z 14001KT 19/14 A2982 RMK A01 T01890137  RH  072%=      5-min Rain = 0
KES1 240656Z 21003KT 19/14 A2982 RMK A01 T01890137  RH  072%=      5-min Rain = 0
KES1 240657Z 22006KT 19/14 A2983 RMK A01 T01880137  RH  072%=      5-min Rain = 0
KES1 240658Z 22008KT 19/14 A2983 RMK A01 T01870137  RH  073%=      5-min Rain = 0
KES1 240659Z 22007KT 19/14 A2983 RMK A01 T01870136  RH  072%=      5-min Rain = 0
KES1 240700Z 22006KT 19/14 A2983 RMK A01 T01870137  RH  072%=      5-min Rain = 0
KES1 240701Z 22004KT 19/14 A2982 RMK A01 T01870136  RH  072%=      5-min Rain = 0
KES1 240702Z 22003KT 19/14 A2982 RMK A01 T01870137  RH  072%=      5-min Rain = 0
KES1 240703Z 21000KT 19/14 A2982 RMK A01 T01870137  RH  072%=      5-min Rain = 0
KES1 240704Z 05003KT 19/14 A2981 RMK A01 T01870137  RH  073%=      5-min Rain = 0
KES1 240705Z 06005KT 19/14 A2981 RMK A01 T01860138  RH  073%=      5-min Rain = 0
KES1 240706Z 09004KT 19/14 A2981 RMK A01 T01850137  RH  074%=      5-min Rain = 0
KES1 240707Z 11003KT 19/14 A2981 RMK A01 T01850137  RH  074%=      5-min Rain = 0
KES1 240708Z 13002KT 19/14 A2981 RMK A01 T01850137  RH  073%=      5-min Rain = 0
KES1 240709Z 18002KT 19/14 A2982 RMK A01 T01850138  RH  074%=      5-min Rain = 0
KES1 240710Z 18003KT 18/14 A2982 RMK A01 T01840139  RH  075%=      5-min Rain = 0
KES1 240711Z 19003KT 18/14 A2982 RMK A01 T01830139  RH  075%=      5-min Rain = 0
KES1 240712Z 20004KT 18/14 A2982 RMK A01 T01830139  RH  075%=      5-min Rain = 0
KES1 240713Z 20005KT 18/14 A2982 RMK A01 T01830138  RH  075%=      5-min Rain = 0
KES1 240714Z 21004KT 18/14 A2983 RMK A01 T01830138  RH  075%=      5-min Rain = 0
KES1 240715Z 21004KT 18/14 A2983 RMK A01 T01830138  RH  075%=      5-min Rain = 0
KES1 240716Z 21004KT 18/14 A2983 RMK A01 T01830138  RH  075%=      5-min Rain = 0
KES1 240717Z 22004KT 18/14 A2983 RMK A01 T01830139  RH  075%=      5-min Rain = 0
KES1 240718Z 22004KT 18/14 A2983 RMK A01 T01820140  RH  076%=      5-min Rain = 0
KES1 240719Z 22003KT 18/14 A2982 RMK A01 T01820140  RH  076%=      5-min Rain = 0
KES1 240720Z 21002KT 18/14 A2982 RMK A01 T01810140  RH  077%=      5-min Rain = 0
KES1 240721Z 16001KT 18/14 A2982 RMK A01 T01810140  RH  077%=      5-min Rain = 0
KES1 240722Z 05001KT 18/14 A2981 RMK A01 T01800140  RH  077%=      5-min Rain = 0
KES1 240723Z 06003KT 18/14 A2981 RMK A01 T01800140  RH  078%=      5-min Rain = 0
KES1 240724Z 07004KT 18/14 A2981 RMK A01 T01790140  RH  078%=      5-min Rain = 0
KES1 240725Z 08002KT 18/14 A2981 RMK A01 T01800136  RH  076%=      5-min Rain = 0
KES1 240726Z 20001KT 18/14 A2981 RMK A01 T01810138  RH  076%=      5-min Rain = 0
KES1 240727Z 23003KT 18/14 A2981 RMK A01 T01810140  RH  077%=      5-min Rain = 0
KES1 240728Z 23004KT 18/14 A2981 RMK A01 T01800141  RH  078%=      5-min Rain = 0
KES1 240729Z 23004KT 18/14 A2981 RMK A01 T01780141  RH  079%=      5-min Rain = 0
KES1 240730Z 23004KT 18/14 A2981 RMK A01 T01770141  RH  079%=      5-min Rain = 0
KES1 240731Z 23004KT 18/14 A2981 RMK A01 T01770139  RH  079%=      5-min Rain = 0
KES1 240732Z 23003KT 18/14 A2981 RMK A01 T01770140  RH  079%=      5-min Rain = 0
KES1 240733Z 21003KT 18/14 A2981 RMK A01 T01770140  RH  079%=      5-min Rain = 0
KES1 240734Z 20003KT 18/14 A2981 RMK A01 T01770140  RH  079%=      5-min Rain = 0
KES1 240735Z 20003KT 18/14 A2981 RMK A01 T01770139  RH  078%=      5-min Rain = 0
KES1 240736Z 20003KT 18/14 A2981 RMK A01 T01780136  RH  076%=      5-min Rain = 0
KES1 240737Z 20004KT 18/14 A2981 RMK A01 T01810136  RH  075%=      5-min Rain = 0
KES1 240738Z 19003KT 18/14 A2981 RMK A01 T01820139  RH  076%=      5-min Rain = 0
KES1 240739Z 18003KT 18/14 A2981 RMK A01 T01810143  RH  078%=      5-min Rain = 0
KES1 240740Z 18003KT 18/14 A2981 RMK A01 T01790142  RH  079%=      5-min Rain = 0
KES1 240741Z 15002KT 18/14 A2981 RMK A01 T01780142  RH  079%=      5-min Rain = 0
KES1 240742Z 09002KT 18/14 A298 RMK A01 T01770141  RH  079%=      5-min Rain = 0
KES1 240743Z 06002KT 18/14 A298 RMK A01 T01770141  RH  080%=      5-min Rain = 0
KES1 240744Z 05002KT 18/14 A298 RMK A01 T01770140  RH  079%=      5-min Rain = 0
KES1 240745Z 05000KT 18/14 A298 RMK A01 T01770140  RH  079%=      5-min Rain = 0
KES1 240746Z 20001KT 18/14 A2981 RMK A01 T01770139  RH  078%=      5-min Rain = 0
KES1 240747Z 21003KT 18/14 A2981 RMK A01 T01770140  RH  079%=      5-min Rain = 0
KES1 240748Z 21004KT 18/14 A2981 RMK A01 T01770142  RH  080%=      5-min Rain = 0
KES1 240749Z 19004KT 18/14 A2981 RMK A01 T01760141  RH  080%=      5-min Rain = 0
KES1 240750Z 17004KT 18/14 A298 RMK A01 T01770135  RH  076%=      5-min Rain = 0
KES1 240751Z 12003KT 18/13 A298 RMK A01 T01790133  RH  074%=      5-min Rain = 0
KES1 240752Z 09003KT 18/14 A298 RMK A01 T01830136  RH  074%=      5-min Rain = 0
KES1 240753Z 08003KT 18/14 A298 RMK A01 T01830141  RH  076%=      5-min Rain = 0
KES1 240754Z 08001KT 18/14 A298 RMK A01 T01820142  RH  077%=      5-min Rain = 0
KES1 240755Z 22004KT 18/14 A298 RMK A01 T01810141  RH  078%=      5-min Rain = 0
KES1 240756Z 21005KT 18/14 A2981 RMK A01 T01780141  RH  079%=      5-min Rain = 0
KES1 240757Z 21004KT 18/14 A2981 RMK A01 T01780139  RH  078%=      5-min Rain = 0
KES1 240758Z 20004KT 18/14 A2981 RMK A01 T01780139  RH  078%=      5-min Rain = 0
KES1 240759Z 19002KT 18/14 A298 RMK A01 T01780138  RH  078%=      5-min Rain = 0
KES1 240800Z 11002KT 18/14 A298 RMK A01 T01780135  RH  075%=      5-min Rain = 0
KES1 240801Z 08003KT 18/14 A298 RMK A01 T01810135  RH  075%=      5-min Rain = 0
KES1 240802Z 07003KT 18/14 A298 RMK A01 T01820140  RH  076%=      5-min Rain = 0
KES1 240803Z 08002KT 18/14 A298 RMK A01 T01820141  RH  077%=      5-min Rain = 0
KES1 240804Z 16001KT 18/14 A298 RMK A01 T01810140  RH  077%=      5-min Rain = 0
KES1 240805Z 21003KT 18/14 A2981 RMK A01 T01790141  RH  078%=      5-min Rain = 0
KES1 240806Z 21004KT 18/14 A2981 RMK A01 T01780141  RH  079%=      5-min Rain = 0
KES1 240807Z 21002KT 18/14 A298 RMK A01 T01780139  RH  078%=      5-min Rain = 0
KES1 240808Z 18001KT 18/14 A298 RMK A01 T01780137  RH  077%=      5-min Rain = 0
KES1 240809Z 14001KT 18/13 A298 RMK A01 T01790133  RH  074%=      5-min Rain = 0
KES1 240810Z 11002KT 18/14 A298 RMK A01 T01810138  RH  076%=      5-min Rain = 0
KES1 240811Z 12002KT 18/14 A298 RMK A01 T01800141  RH  077%=      5-min Rain = 0
KES1 240812Z 15001KT 18/14 A298 RMK A01 T01790139  RH  078%=      5-min Rain = 0
KES1 240813Z 15001KT 18/14 A298 RMK A01 T01790137  RH  076%=      5-min Rain = 0
KES1 240814Z 21001KT 18/14 A298 RMK A01 T01800136  RH  075%=      5-min Rain = 0
KES1 240815Z 21002KT 18/14 A298 RMK A01 T01820140  RH  076%=      5-min Rain = 0
KES1 240816Z 22003KT 18/14 A298 RMK A01 T01800142  RH  078%=      5-min Rain = 0
KES1 240817Z 22003KT 18/14 A298 RMK A01 T01790141  RH  079%=      5-min Rain = 0
KES1 240818Z 22003KT 18/14 A298 RMK A01 T01770141  RH  079%=      5-min Rain = 0
KES1 240819Z 22002KT 18/14 A298 RMK A01 T01770140  RH  079%=      5-min Rain = 0
KES1 240820Z 22002KT 18/14 A298 RMK A01 T01770139  RH  079%=      5-min Rain = 0
KES1 240821Z 23001KT 18/14 A298 RMK A01 T01770136  RH  077%=      5-min Rain = 0
KES1 240822Z 23001KT 18/13 A298 RMK A01 T01770133  RH  076%=      5-min Rain = 0
KES1 240823Z 23001KT 18/13 A298 RMK A01 T01770132  RH  075%=      5-min Rain = 0
KES1 240824Z 00000KT 18/14 A298 RMK A01 T01790139  RH  077%=      5-min Rain = 0
KES1 240825Z 00000KT 18/14 A298 RMK A01 T01790141  RH  078%=      5-min Rain = 0
KES1 240826Z 00000KT 18/14 A298 RMK A01 T01780140  RH  079%=      5-min Rain = 0
KES1 240827Z 32000KT 18/14 A298 RMK A01 T01770143  RH  080%=      5-min Rain = 0
KES1 240828Z 00000KT 18/14 A298 RMK A01 T01770141  RH  080%=      5-min Rain = 0
KES1 240829Z 32000KT 18/14 A298 RMK A01 T01770142  RH  080%=      5-min Rain = 0
KES1 240830Z 32001KT 18/14 A298 RMK A01 T01770143  RH  081%=      5-min Rain = 0
KES1 240831Z 32000KT 18/14 A298 RMK A01 T01760144  RH  081%=      5-min Rain = 0
KES1 240832Z 00000KT 18/14 A298 RMK A01 T01750144  RH  082%=      5-min Rain = 0
KES1 240833Z 00000KT 18/14 A298 RMK A01 T01750144  RH  082%=      5-min Rain = 0
KES1 240834Z 07000KT 17/14 A298 RMK A01 T01740144  RH  082%=      5-min Rain = 0
KES1 240835Z 07001KT 17/14 A298 RMK A01 T01740144  RH  083%=      5-min Rain = 0
KES1 240836Z 06001KT 17/14 A298 RMK A01 T01730144  RH  083%=      5-min Rain = 0
KES1 240837Z 10001KT 17/14 A298 RMK A01 T01720144  RH  083%=      5-min Rain = 0
KES1 240838Z 15001KT 17/14 A298 RMK A01 T01720143  RH  083%=      5-min Rain = 0
KES1 240839Z 18002KT 17/14 A2981 RMK A01 T01720143  RH  083%=      5-min Rain = 0
KES1 240840Z 19002KT 17/14 A2981 RMK A01 T01710144  RH  084%=      5-min Rain = 0
KES1 240841Z 20001KT 17/14 A2981 RMK A01 T01710144  RH  084%=      5-min Rain = 0
KES1 240842Z 20001KT 17/14 A298 RMK A01 T01710141  RH  083%=      5-min Rain = 0
KES1 240843Z 20000KT 17/14 A298 RMK A01 T01720141  RH  082%=      5-min Rain = 0
KES1 240844Z 10002KT 17/14 A298 RMK A01 T01720143  RH  083%=      5-min Rain = 0
KES1 240845Z 10002KT 17/14 A298 RMK A01 T01720144  RH  084%=      5-min Rain = 0
KES1 240846Z 10001KT 17/14 A298 RMK A01 T01700144  RH  085%=      5-min Rain = 0
KES1 240847Z 10000KT 17/14 A298 RMK A01 T01690143  RH  084%=      5-min Rain = 0
KES1 240848Z 00000KT 17/14 A2981 RMK A01 T01690141  RH  084%=      5-min Rain = 0
KES1 240849Z 17001KT 17/14 A2981 RMK A01 T01700137  RH  081%=      5-min Rain = 0
KES1 240850Z 16003KT 17/14 A2981 RMK A01 T01730137  RH  079%=      5-min Rain = 0
KES1 240851Z 15003KT 18/14 A2982 RMK A01 T01750139  RH  080%=      5-min Rain = 0
KES1 240852Z 16003KT 18/14 A2982 RMK A01 T01760141  RH  080%=      5-min Rain = 0
KES1 240853Z 18003KT 18/14 A2981 RMK A01 T01750139  RH  079%=      5-min Rain = 0
KES1 240854Z 18002KT 18/13 A2981 RMK A01 T01750133  RH  076%=      5-min Rain = 0
KES1 240855Z 19002KT 18/13 A2981 RMK A01 T01760133  RH  076%=      5-min Rain = 0
KES1 240856Z 19004KT 18/14 A2981 RMK A01 T01760137  RH  078%=      5-min Rain = 0
KES1 240857Z 18006KT 18/13 A2982 RMK A01 T01770134  RH  076%=      5-min Rain = 0
KES1 240858Z 18008KT 18/14 A2982 RMK A01 T01790136  RH  076%=      5-min Rain = 0
KES1 240859Z 18007KT 18/13 A2982 RMK A01 T01800134  RH  074%=      5-min Rain = 0
KES1 240900Z 19006KT 18/13 A2982 RMK A01 T01820133  RH  073%=      5-min Rain = 0
KES1 240901Z 19007KT 18/13 A2982 RMK A01 T01830134  RH  073%=      5-min Rain = 0
KES1 240902Z 18008KT 18/13 A2982 RMK A01 T01840134  RH  073%=      5-min Rain = 0
KES1 240903Z 17007KT 18/13 A2983 RMK A01 T01840134  RH  073%=      5-min Rain = 0
KES1 240904Z 16006KT 18/13 A2983 RMK A01 T01840134  RH  073%=      5-min Rain = 0
KES1 240905Z 16006KT 18/13 A2983 RMK A01 T01830134  RH  073%=      5-min Rain = 0
KES1 240906Z 17006KT 18/13 A2983 RMK A01 T01820134  RH  073%=      5-min Rain = 0
KES1 240907Z 17006KT 18/13 A2983 RMK A01 T01820134  RH  073%=      5-min Rain = 0
KES1 240908Z 18005KT 18/13 A2982 RMK A01 T01820134  RH  073%=      5-min Rain = 0
KES1 240909Z 18005KT 18/13 A2982 RMK A01 T01830134  RH  073%=      5-min Rain = 0
KES1 240910Z 18006KT 18/13 A2983 RMK A01 T01820134  RH  073%=      5-min Rain = 0
KES1 240911Z 17005KT 18/13 A2983 RMK A01 T01810134  RH  074%=      5-min Rain = 0
KES1 240912Z 16005KT 18/14 A2983 RMK A01 T01800135  RH  074%=      5-min Rain = 0
KES1 240913Z 15004KT 18/13 A2983 RMK A01 T01790134  RH  075%=      5-min Rain = 0
KES1 240914Z 14004KT 18/14 A2983 RMK A01 T01790135  RH  076%=      5-min Rain = 0
KES1 240915Z 13003KT 18/14 A2983 RMK A01 T01770136  RH  077%=      5-min Rain = 0
KES1 240916Z 14002KT 18/14 A2983 RMK A01 T01750136  RH  078%=      5-min Rain = 0
KES1 240917Z 12002KT 17/14 A2983 RMK A01 T01740136  RH  078%=      5-min Rain = 0
KES1 240918Z 12002KT 17/14 A2983 RMK A01 T01740136  RH  079%=      5-min Rain = 0
KES1 240919Z 13002KT 17/14 A2983 RMK A01 T01730136  RH  079%=      5-min Rain = 0
KES1 240920Z 13003KT 17/14 A2983 RMK A01 T01730136  RH  079%=      5-min Rain = 0
KES1 240921Z 13003KT 17/14 A2983 RMK A01 T01720136  RH  079%=      5-min Rain = 0
KES1 240922Z 12003KT 17/14 A2982 RMK A01 T01720137  RH  080%=      5-min Rain = 0
KES1 240923Z 12002KT 17/14 A2982 RMK A01 T01710137  RH  080%=      5-min Rain = 0
KES1 240924Z 13003KT 17/14 A2982 RMK A01 T01710137  RH  081%=      5-min Rain = 0
KES1 240925Z 12003KT 17/14 A2982 RMK A01 T01710137  RH  081%=      5-min Rain = 0
KES1 240926Z 11004KT 17/14 A2982 RMK A01 T01700137  RH  081%=      5-min Rain = 0
KES1 240927Z 13004KT 17/14 A2982 RMK A01 T01690138  RH  082%=      5-min Rain = 0
KES1 240928Z 14003KT 17/14 A2982 RMK A01 T01680138  RH  083%=      5-min Rain = 0
KES1 240929Z 15003KT 17/14 A2982 RMK A01 T01670139  RH  083%=      5-min Rain = 0
KES1 240930Z 15004KT 17/14 A2982 RMK A01 T01670139  RH  084%=      5-min Rain = 0
KES1 240931Z 15003KT 17/14 A2982 RMK A01 T01670139  RH  083%=      5-min Rain = 0
KES1 240932Z 15004KT 17/14 A2982 RMK A01 T01670138  RH  083%=      5-min Rain = 0
KES1 240933Z 14005KT 17/14 A2982 RMK A01 T01680138  RH  083%=      5-min Rain = 0
KES1 240934Z 14004KT 17/14 A2982 RMK A01 T01680139  RH  083%=      5-min Rain = 0
KES1 240935Z 15006KT 17/14 A2982 RMK A01 T01680139  RH  083%=      5-min Rain = 0
KES1 240936Z 15005KT 17/14 A2982 RMK A01 T01680140  RH  084%=      5-min Rain = 0
KES1 240937Z 16006KT 17/14 A2982 RMK A01 T01680141  RH  084%=      5-min Rain = 0
KES1 240938Z 16005KT 17/14 A2982 RMK A01 T01680140  RH  084%=      5-min Rain = 0
KES1 240939Z 16005KT 17/14 A2982 RMK A01 T01680139  RH  083%=      5-min Rain = 0
KES1 240940Z 16005KT 17/14 A2982 RMK A01 T01690139  RH  083%=      5-min Rain = 0
KES1 240941Z 16005KT 17/14 A2982 RMK A01 T01690139  RH  082%=      5-min Rain = 0
KES1 240942Z 16005KT 17/14 A2982 RMK A01 T01700139  RH  082%=      5-min Rain = 0
KES1 240943Z 17005KT 17/14 A2982 RMK A01 T01700139  RH  082%=      5-min Rain = 0
KES1 240944Z 16006KT 17/14 A2982 RMK A01 T01710139  RH  081%=      5-min Rain = 0
KES1 240945Z 16005KT 17/14 A2982 RMK A01 T01720138  RH  080%=      5-min Rain = 0
KES1 240946Z 18006KT 17/14 A2982 RMK A01 T01730138  RH  080%=      5-min Rain = 0
KES1 240947Z 19007KT 17/14 A2982 RMK A01 T01730138  RH  080%=      5-min Rain = 0
KES1 240948Z 19006KT 17/14 A2982 RMK A01 T01740139  RH  080%=      5-min Rain = 0
KES1 240949Z 18007KT 17/14 A2981 RMK A01 T01740138  RH  079%=      5-min Rain = 0
KES1 240950Z 18006KT 17/14 A2981 RMK A01 T01740138  RH  079%=      5-min Rain = 0
KES1 240951Z 19007KT 18/14 A2981 RMK A01 T01750138  RH  079%=      5-min Rain = 0
KES1 240952Z 19007KT 18/14 A2981 RMK A01 T01760138  RH  079%=      5-min Rain = 0
KES1 240953Z 19006KT 18/14 A2981 RMK A01 T01750138  RH  079%=      5-min Rain = 0
KES1 240954Z 19005KT 18/14 A2981 RMK A01 T01750138  RH  079%=      5-min Rain = 0
KES1 240955Z 19005KT 18/14 A2981 RMK A01 T01760138  RH  079%=      5-min Rain = 0
KES1 240956Z 20005KT 18/14 A2981 RMK A01 T01760137  RH  078%=      5-min Rain = 0
KES1 240957Z 19003KT 18/14 A2981 RMK A01 T01760138  RH  078%=      5-min Rain = 0
KES1 240958Z 17003KT 18/14 A2981 RMK A01 T01760138  RH  078%=      5-min Rain = 0
KES1 240959Z 14001KT 18/14 A2981 RMK A01 T01760138  RH  078%=      5-min Rain = 0
KES1 241000Z 16000KT 18/14 A2981 RMK A01 T01760138  RH  079%=      5-min Rain = 0
KES1 241001Z 07000KT 18/14 A2981 RMK A01 T01750138  RH  079%=      5-min Rain = 0
KES1 241002Z 12000KT 17/14 A2981 RMK A01 T01740139  RH  080%=      5-min Rain = 0
KES1 241003Z 07001KT 17/14 A2981 RMK A01 T01730138  RH  080%=      5-min Rain = 0
KES1 241004Z 07001KT 17/14 A2981 RMK A01 T01720138  RH  080%=      5-min Rain = 0
KES1 241005Z 08001KT 17/14 A2981 RMK A01 T01720139  RH  081%=      5-min Rain = 0
KES1 241006Z 09001KT 17/14 A2981 RMK A01 T01710138  RH  081%=      5-min Rain = 0
KES1 241007Z 09002KT 17/14 A2981 RMK A01 T01700139  RH  082%=      5-min Rain = 0
KES1 241008Z 09003KT 17/14 A2981 RMK A01 T01700139  RH  082%=      5-min Rain = 0
KES1 241009Z 08003KT 17/14 A2981 RMK A01 T01690139  RH  083%=      5-min Rain = 0
KES1 241010Z 09003KT 17/14 A2981 RMK A01 T01670139  RH  084%=      5-min Rain = 0
KES1 241011Z 10004KT 17/14 A2981 RMK A01 T01660139  RH  084%=      5-min Rain = 0
KES1 241012Z 11003KT 17/14 A2981 RMK A01 T01650140  RH  085%=      5-min Rain = 0
KES1 241013Z 11004KT 17/14 A2981 RMK A01 T01650140  RH  085%=      5-min Rain = 0
KES1 241014Z 10003KT 17/14 A2981 RMK A01 T01650139  RH  085%=      5-min Rain = 0
KES1 241015Z 10003KT 17/14 A2981 RMK A01 T01660140  RH  085%=      5-min Rain = 0
KES1 241016Z 10003KT 17/14 A2981 RMK A01 T01660140  RH  085%=      5-min Rain = 0
KES1 241017Z 11002KT 17/14 A2981 RMK A01 T01650140  RH  085%=      5-min Rain = 0
KES1 241018Z 12002KT 17/14 A2981 RMK A01 T01650140  RH  085%=      5-min Rain = 0
KES1 241019Z 14002KT 17/14 A2981 RMK A01 T01650140  RH  085%=      5-min Rain = 0
KES1 241020Z 11002KT 17/14 A2981 RMK A01 T01650140  RH  085%=      5-min Rain = 0
KES1 241021Z 11002KT 17/14 A2981 RMK A01 T01650140  RH  085%=      5-min Rain = 0
KES1 241022Z 11001KT 17/14 A2981 RMK A01 T01650140  RH  085%=      5-min Rain = 0
KES1 241023Z 11001KT 17/14 A2981 RMK A01 T01650141  RH  085%=      5-min Rain = 0
KES1 241024Z 11002KT 17/14 A2981 RMK A01 T01650141  RH  085%=      5-min Rain = 0
KES1 241025Z 12002KT 17/14 A2981 RMK A01 T01650141  RH  085%=      5-min Rain = 0
KES1 241026Z 10002KT 17/14 A2981 RMK A01 T01650140  RH  085%=      5-min Rain = 0
KES1 241027Z 10002KT 17/14 A2981 RMK A01 T01650140  RH  085%=      5-min Rain = 0
KES1 241028Z 12003KT 17/14 A2981 RMK A01 T01650141  RH  085%=      5-min Rain = 0
KES1 241029Z 13003KT 17/14 A2981 RMK A01 T01650140  RH  086%=      5-min Rain = 0
KES1 241030Z 14003KT 16/14 A2981 RMK A01 T01640140  RH  086%=      5-min Rain = 0
KES1 241031Z 14003KT 16/14 A2981 RMK A01 T01640141  RH  087%=      5-min Rain = 0
KES1 241032Z 15002KT 16/14 A2981 RMK A01 T01630141  RH  087%=      5-min Rain = 0
KES1 241033Z 16003KT 16/14 A2981 RMK A01 T01630142  RH  087%=      5-min Rain = 0
KES1 241034Z 16003KT 16/14 A2981 RMK A01 T01630142  RH  087%=      5-min Rain = 0
KES1 241035Z 16003KT 16/14 A2981 RMK A01 T01630142  RH  088%=      5-min Rain = 0
KES1 241036Z 18003KT 16/14 A2981 RMK A01 T01620142  RH  088%=      5-min Rain = 0
KES1 241037Z 18003KT 16/14 A2981 RMK A01 T01620142  RH  088%=      5-min Rain = 0
KES1 241038Z 18003KT 16/14 A2981 RMK A01 T01620142  RH  088%=      5-min Rain = 0
KES1 241039Z 17003KT 16/14 A2981 RMK A01 T01620142  RH  088%=      5-min Rain = 0
KES1 241040Z 16003KT 16/14 A2981 RMK A01 T01630142  RH  088%=      5-min Rain = 0
KES1 241041Z 15004KT 16/14 A2981 RMK A01 T01630142  RH  087%=      5-min Rain = 0
KES1 241042Z 15004KT 16/14 A2981 RMK A01 T01640142  RH  087%=      5-min Rain = 0
KES1 241043Z 15005KT 16/14 A2981 RMK A01 T01640142  RH  087%=      5-min Rain = 0
KES1 241044Z 15005KT 16/14 A2981 RMK A01 T01640142  RH  087%=      5-min Rain = 0
KES1 241045Z 14005KT 16/14 A2981 RMK A01 T01640142  RH  087%=      5-min Rain = 0
KES1 241046Z 15006KT 16/14 A2981 RMK A01 T01640142  RH  087%=      5-min Rain = 0
KES1 241047Z 15006KT 16/14 A2981 RMK A01 T01640142  RH  087%=      5-min Rain = 0
KES1 241048Z 16005KT 16/14 A2981 RMK A01 T01640142  RH  087%=      5-min Rain = 0
KES1 241049Z 15005KT 16/14 A2981 RMK A01 T01640141  RH  086%=      5-min Rain = 0
KES1 241050Z 16005KT 17/14 A2981 RMK A01 T01650141  RH  086%=      5-min Rain = 0
KES1 241051Z 15005KT 17/14 A2981 RMK A01 T01660141  RH  085%=      5-min Rain = 0
KES1 241052Z 15005KT 17/14 A2981 RMK A01 T01660141  RH  085%=      5-min Rain = 0
KES1 241053Z 16005KT 17/14 A2981 RMK A01 T01660141  RH  085%=      5-min Rain = 0
KES1 241054Z 16005KT 17/14 A2981 RMK A01 T01670141  RH  085%=      5-min Rain = 0
KES1 241055Z 15005KT 17/14 A2981 RMK A01 T01670141  RH  085%=      5-min Rain = 0
KES1 241056Z 15004KT 17/14 A2981 RMK A01 T01670141  RH  085%=      5-min Rain = 0
KES1 241057Z 15004KT 17/14 A2981 RMK A01 T01670142  RH  085%=      5-min Rain = 0
KES1 241058Z 15005KT 17/14 A2981 RMK A01 T01660142  RH  085%=      5-min Rain = 0
KES1 241059Z 16005KT 17/14 A2981 RMK A01 T01660142  RH  086%=      5-min Rain = 0
KES1 241100Z 16005KT 17/14 A2981 RMK A01 T01650142  RH  086%=      5-min Rain = 0
KES1 241101Z 15005KT 17/14 A2981 RMK A01 T01660142  RH  086%=      5-min Rain = 0
KES1 241102Z 16005KT 17/14 A2981 RMK A01 T01660142  RH  086%=      5-min Rain = 0
KES1 241103Z 17005KT 17/14 A2981 RMK A01 T01650142  RH  086%=      5-min Rain = 0
KES1 241104Z 16005KT 17/14 A2981 RMK A01 T01650142  RH  086%=      5-min Rain = 0
KES1 241105Z 16005KT 17/14 A2981 RMK A01 T01650141  RH  085%=      5-min Rain = 0
KES1 241106Z 16005KT 17/14 A2981 RMK A01 T01660141  RH  085%=      5-min Rain = 0
KES1 241107Z 17005KT 17/14 A2981 RMK A01 T01660141  RH  085%=      5-min Rain = 0
KES1 241108Z 16005KT 17/14 A2981 RMK A01 T01660140  RH  084%=      5-min Rain = 0
KES1 241109Z 15005KT 17/14 A2981 RMK A01 T01670140  RH  084%=      5-min Rain = 0
KES1 241110Z 15005KT 17/14 A2981 RMK A01 T01670141  RH  084%=      5-min Rain = 0
KES1 241111Z 16006KT 17/14 A2981 RMK A01 T01670141  RH  085%=      5-min Rain = 0
KES1 241112Z 16005KT 17/14 A2981 RMK A01 T01670140  RH  084%=      5-min Rain = 0
KES1 241113Z 15005KT 17/14 A2981 RMK A01 T01660140  RH  084%=      5-min Rain = 0
KES1 241114Z 15005KT 17/14 A2981 RMK A01 T01660140  RH  084%=      5-min Rain = 0
KES1 241115Z 16006KT 17/14 A2981 RMK A01 T01670140  RH  085%=      5-min Rain = 0
KES1 241116Z 15005KT 17/14 A2981 RMK A01 T01660140  RH  085%=      5-min Rain = 0
KES1 241117Z 15005KT 17/14 A2981 RMK A01 T01660140  RH  085%=      5-min Rain = 0
KES1 241118Z 16006KT 17/14 A2982 RMK A01 T01660140  RH  085%=      5-min Rain = 0
KES1 241119Z 14005KT 17/14 A2981 RMK A01 T01650140  RH  085%=      5-min Rain = 0
KES1 241120Z 14004KT 17/14 A2981 RMK A01 T01650139  RH  085%=      5-min Rain = 0
KES1 241121Z 15005KT 17/14 A2982 RMK A01 T01650139  RH  085%=      5-min Rain = 0
KES1 241122Z 13006KT 17/14 A2981 RMK A01 T01650139  RH  085%=      5-min Rain = 0
KES1 241123Z 14005KT 17/14 A2981 RMK A01 T01650138  RH  084%=      5-min Rain = 0
KES1 241124Z 15006KT 17/14 A2981 RMK A01 T01660138  RH  084%=      5-min Rain = 0
KES1 241125Z 15006KT 17/14 A2981 RMK A01 T01660139  RH  084%=      5-min Rain = 0
KES1 241126Z 14005KT 17/14 A2981 RMK A01 T01660139  RH  084%=      5-min Rain = 0
KES1 241127Z 14005KT 17/14 A2981 RMK A01 T01660139  RH  084%=      5-min Rain = 0
KES1 241128Z 16005KT 17/14 A2981 RMK A01 T01660139  RH  084%=      5-min Rain = 0
KES1 241129Z 15005KT 17/14 A2981 RMK A01 T01660139  RH  084%=      5-min Rain = 0
KES1 241130Z 13005KT 17/14 A2981 RMK A01 T01650139  RH  084%=      5-min Rain = 0
KES1 241131Z 14004KT 17/14 A2981 RMK A01 T01650139  RH  085%=      5-min Rain = 0
KES1 241132Z 15004KT 17/14 A2981 RMK A01 T01650139  RH  085%=      5-min Rain = 0
KES1 241133Z 14004KT 17/14 A2981 RMK A01 T01650139  RH  085%=      5-min Rain = 0
KES1 241134Z 14004KT 16/14 A2981 RMK A01 T01640139  RH  085%=      5-min Rain = 0
KES1 241135Z 15004KT 16/14 A2981 RMK A01 T01640139  RH  085%=      5-min Rain = 0
KES1 241136Z 16004KT 16/14 A2981 RMK A01 T01640139  RH  085%=      5-min Rain = 0
KES1 241137Z 15004KT 16/14 A2981 RMK A01 T01640139  RH  085%=      5-min Rain = 0
KES1 241138Z 15004KT 16/14 A2981 RMK A01 T01640139  RH  085%=      5-min Rain = 0
KES1 241139Z 13004KT 16/14 A2981 RMK A01 T01630139  RH  085%=      5-min Rain = 0
KES1 241140Z 13004KT 16/14 A2981 RMK A01 T01630139  RH  085%=      5-min Rain = 0
KES1 241141Z 14004KT 16/14 A2981 RMK A01 T01630139  RH  086%=      5-min Rain = 0
KES1 241142Z 15004KT 16/14 A2982 RMK A01 T01630139  RH  086%=      5-min Rain = 0
KES1 241143Z 15004KT 16/14 A2982 RMK A01 T01630139  RH  086%=      5-min Rain = 0
KES1 241144Z 14004KT 16/14 A2982 RMK A01 T01620138  RH  086%=      5-min Rain = 0
KES1 241145Z 14005KT 16/14 A2982 RMK A01 T01630139  RH  086%=      5-min Rain = 0
KES1 241146Z 15005KT 16/14 A2982 RMK A01 T01630139  RH  086%=      5-min Rain = 0
KES1 241147Z 15004KT 16/14 A2982 RMK A01 T01630139  RH  086%=      5-min Rain = 0
KES1 241148Z 15005KT 16/14 A2982 RMK A01 T01630139  RH  086%=      5-min Rain = 0
KES1 241149Z 15006KT 16/14 A2982 RMK A01 T01630139  RH  086%=      5-min Rain = 0
KES1 241150Z 14006KT 16/14 A2982 RMK A01 T01620139  RH  086%=      5-min Rain = 0
KES1 241151Z 14006KT 16/14 A2981 RMK A01 T01620139  RH  086%=      5-min Rain = 0
KES1 241152Z 14005KT 16/14 A2981 RMK A01 T01620139  RH  086%=      5-min Rain = 0
KES1 241153Z 14006KT 16/14 A2981 RMK A01 T01630140  RH  086%=      5-min Rain = 0
KES1 241154Z 14006KT 16/14 A2981 RMK A01 T01630139  RH  086%=      5-min Rain = 0
KES1 241155Z 14006KT 16/14 A2981 RMK A01 T01630140  RH  086%=      5-min Rain = 0
KES1 241156Z 14007KT 16/14 A2981 RMK A01 T01630139  RH  086%=      5-min Rain = 0
KES1 241157Z 15006KT 16/14 A2981 RMK A01 T01640139  RH  085%=      5-min Rain = 0
KES1 241158Z 15007KT 16/14 A2981 RMK A01 T01640139  RH  085%=      5-min Rain = 0
KES1 241159Z 14006KT 16/14 A2981 RMK A01 T01640140  RH  085%=      5-min Rain = 0
KES1 241200Z 14007KT 16/14 A2981 RMK A01 T01640140  RH  085%=      5-min Rain = 0
KES1 241201Z 15007KT 16/14 A2981 RMK A01 T01640140  RH  085%=      5-min Rain = 0
KES1 241202Z 14007KT 16/14 A2981 RMK A01 T01640139  RH  085%=      5-min Rain = 0
KES1 241203Z 15006KT 16/14 A2981 RMK A01 T01640140  RH  085%=      5-min Rain = 0
KES1 241204Z 15007KT 17/14 A2981 RMK A01 T01650140  RH  085%=      5-min Rain = 0
KES1 241205Z 14007KT 17/14 A2981 RMK A01 T01650139  RH  085%=      5-min Rain = 0
KES1 241206Z 14007KT 17/14 A2981 RMK A01 T01660140  RH  084%=      5-min Rain = 0
KES1 241207Z 14006KT 17/14 A2981 RMK A01 T01670140  RH  084%=      5-min Rain = 0
KES1 241208Z 14006KT 17/14 A2981 RMK A01 T01670139  RH  084%=      5-min Rain = 0
KES1 241209Z 14007KT 17/14 A2981 RMK A01 T01680140  RH  084%=      5-min Rain = 0
KES1 241210Z 14007KT 17/14 A2981 RMK A01 T01680140  RH  083%=      5-min Rain = 0
KES1 241211Z 14007KT 17/14 A2981 RMK A01 T01680140  RH  083%=      5-min Rain = 0
KES1 241212Z 14006KT 17/14 A2982 RMK A01 T01690140  RH  083%=      5-min Rain = 0
KES1 241213Z 14006KT 17/14 A2982 RMK A01 T01690140  RH  083%=      5-min Rain = 0
KES1 241214Z 14006KT 17/14 A2982 RMK A01 T01690140  RH  083%=      5-min Rain = 0
KES1 241215Z 15005KT 17/14 A2982 RMK A01 T01690140  RH  083%=      5-min Rain = 0
KES1 241216Z 14005KT 17/14 A2982 RMK A01 T01700140  RH  083%=      5-min Rain = 0
KES1 241217Z 14006KT 17/14 A2982 RMK A01 T01700140  RH  083%=      5-min Rain = 0
KES1 241218Z 14005KT 17/14 A2982 RMK A01 T01690140  RH  083%=      5-min Rain = 0
KES1 241219Z 15005KT 17/14 A2982 RMK A01 T01690140  RH  083%=      5-min Rain = 0
KES1 241220Z 15005KT 17/14 A2982 RMK A01 T01700139  RH  082%=      5-min Rain = 0
KES1 241221Z 15006KT 17/14 A2982 RMK A01 T01700139  RH  082%=      5-min Rain = 0
KES1 241222Z 14004KT 17/14 A2982 RMK A01 T01700139  RH  082%=      5-min Rain = 0
KES1 241223Z 14005KT 17/14 A2982 RMK A01 T01700140  RH  082%=      5-min Rain = 0
KES1 241224Z 14004KT 17/14 A2982 RMK A01 T01700139  RH  082%=      5-min Rain = 0
KES1 241225Z 15005KT 17/14 A2982 RMK A01 T01710140  RH  082%=      5-min Rain = 0
KES1 241226Z 15004KT 17/14 A2982 RMK A01 T01710140  RH  082%=      5-min Rain = 0
KES1 241227Z 15003KT 17/14 A2983 RMK A01 T01710140  RH  082%=      5-min Rain = 0
KES1 241228Z 15005KT 17/14 A2983 RMK A01 T01710140  RH  082%=      5-min Rain = 0
KES1 241229Z 14005KT 17/14 A2983 RMK A01 T01710140  RH  082%=      5-min Rain = 0
KES1 241230Z 14004KT 17/14 A2983 RMK A01 T01710140  RH  082%=      5-min Rain = 0
KES1 241231Z 14004KT 17/14 A2983 RMK A01 T01710141  RH  083%=      5-min Rain = 0
KES1 241232Z 14004KT 17/14 A2982 RMK A01 T01710141  RH  083%=      5-min Rain = 0
KES1 241233Z 13004KT 17/14 A2982 RMK A01 T01710141  RH  083%=      5-min Rain = 0
KES1 241234Z 14004KT 17/14 A2982 RMK A01 T01710141  RH  083%=      5-min Rain = 0
KES1 241235Z 14004KT 17/14 A2982 RMK A01 T01710141  RH  083%=      5-min Rain = 0
KES1 241236Z 15005KT 17/14 A2983 RMK A01 T01720141  RH  082%=      5-min Rain = 0
KES1 241237Z 14005KT 17/14 A2983 RMK A01 T01710142  RH  083%=      5-min Rain = 0
KES1 241238Z 14004KT 17/14 A2982 RMK A01 T01720141  RH  082%=      5-min Rain = 0
KES1 241239Z 14005KT 17/14 A2982 RMK A01 T01720142  RH  082%=      5-min Rain = 0
KES1 241240Z 14005KT 17/14 A2983 RMK A01 T01720142  RH  082%=      5-min Rain = 0
KES1 241241Z 13006KT 17/14 A2983 RMK A01 T01730142  RH  082%=      5-min Rain = 0
KES1 241242Z 13005KT 17/14 A2983 RMK A01 T01730143  RH  083%=      5-min Rain = 0
KES1 241243Z 13005KT 17/14 A2983 RMK A01 T01730143  RH  082%=      5-min Rain = 0
KES1 241244Z 13004KT 17/14 A2983 RMK A01 T01730143  RH  082%=      5-min Rain = 0
KES1 241245Z 14004KT 17/14 A2983 RMK A01 T01740144  RH  082%=      5-min Rain = 0
KES1 241246Z 13004KT 17/14 A2983 RMK A01 T01740144  RH  082%=      5-min Rain = 0
KES1 241247Z 13004KT 18/14 A2983 RMK A01 T01750144  RH  082%=      5-min Rain = 0
KES1 241248Z 13003KT 18/14 A2983 RMK A01 T01750144  RH  082%=      5-min Rain = 0
KES1 241249Z 14004KT 18/15 A2983 RMK A01 T01750145  RH  082%=      5-min Rain = 0
KES1 241250Z 14004KT 18/15 A2983 RMK A01 T01760145  RH  082%=      5-min Rain = 0
KES1 241251Z 13004KT 18/14 A2983 RMK A01 T01760144  RH  081%=      5-min Rain = 0
KES1 241252Z 13004KT 18/15 A2983 RMK A01 T01760145  RH  082%=      5-min Rain = 0
KES1 241253Z 13004KT 18/15 A2983 RMK A01 T01770146  RH  082%=      5-min Rain = 0
KES1 241254Z 12003KT 18/15 A2983 RMK A01 T01770145  RH  082%=      5-min Rain = 0
KES1 241255Z 13004KT 18/15 A2983 RMK A01 T01770146  RH  082%=      5-min Rain = 0
KES1 241256Z 13004KT 18/15 A2983 RMK A01 T01780146  RH  081%=      5-min Rain = 0
KES1 241257Z 13004KT 18/15 A2983 RMK A01 T01780145  RH  081%=      5-min Rain = 0
KES1 241258Z 14003KT 18/15 A2983 RMK A01 T01780145  RH  081%=      5-min Rain = 0
KES1 241259Z 14003KT 18/15 A2983 RMK A01 T01780146  RH  081%=      5-min Rain = 0
KES1 241300Z 14002KT 18/15 A2983 RMK A01 T01790147  RH  081%=      5-min Rain = 0
KES1 241301Z 14002KT 18/15 A2983 RMK A01 T01790148  RH  082%=      5-min Rain = 0
KES1 241302Z 13003KT 18/15 A2983 RMK A01 T01800147  RH  081%=      5-min Rain = 0
KES1 241303Z 13002KT 18/15 A2983 RMK A01 T01800147  RH  081%=      5-min Rain = 0
KES1 241304Z 13002KT 18/15 A2983 RMK A01 T01810148  RH  081%=      5-min Rain = 0
KES1 241305Z 14003KT 18/15 A2983 RMK A01 T01820150  RH  081%=      5-min Rain = 0
KES1 241306Z 13003KT 18/15 A2983 RMK A01 T01830149  RH  080%=      5-min Rain = 0
KES1 241307Z 14003KT 18/15 A2983 RMK A01 T01840149  RH  080%=      5-min Rain = 0
KES1 241308Z 15003KT 19/15 A2983 RMK A01 T01860150  RH  079%=      5-min Rain = 0
KES1 241309Z 15004KT 19/15 A2983 RMK A01 T01870149  RH  078%=      5-min Rain = 0
KES1 241310Z 14004KT 19/15 A2983 RMK A01 T01880150  RH  078%=      5-min Rain = 0
KES1 241311Z 14004KT 19/15 A2983 RMK A01 T01890149  RH  078%=      5-min Rain = 0
KES1 241312Z 15006KT 19/15 A2983 RMK A01 T01900148  RH  077%=      5-min Rain = 0
KES1 241313Z 15006KT 19/15 A2983 RMK A01 T01900148  RH  077%=      5-min Rain = 0
KES1 241314Z 15007KT 19/15 A2983 RMK A01 T01900149  RH  077%=      5-min Rain = 0
KES1 241315Z 14005KT 19/15 A2983 RMK A01 T01900147  RH  076%=      5-min Rain = 0
KES1 241316Z 15006KT 19/15 A2983 RMK A01 T01900149  RH  077%=      5-min Rain = 0
KES1 241317Z 15005KT 19/15 A2982 RMK A01 T01910150  RH  077%=      5-min Rain = 0
KES1 241318Z 14005KT 19/15 A2982 RMK A01 T01920152  RH  077%=      5-min Rain = 0
KES1 241319Z 15008KT 19/15 A2982 RMK A01 T01930150  RH  076%=      5-min Rain = 0
KES1 241320Z 16007KT 19/15 A2982 RMK A01 T01940150  RH  076%=      5-min Rain = 0
KES1 241321Z 16005KT 19/15 A2982 RMK A01 T01940149  RH  075%=      5-min Rain = 0
KES1 241322Z 16004KT 19/15 A2983 RMK A01 T01940152  RH  077%=      5-min Rain = 0
KES1 241323Z 17004KT 19/15 A2983 RMK A01 T01940151  RH  076%=      5-min Rain = 0
KES1 241324Z 16004KT 20/15 A2983 RMK A01 T01950152  RH  076%=      5-min Rain = 0
KES1 241325Z 15003KT 20/15 A2983 RMK A01 T01960152  RH  076%=      5-min Rain = 0
KES1 241326Z 17002KT 20/15 A2983 RMK A01 T01970154  RH  076%=      5-min Rain = 0
KES1 241327Z 16002KT 20/15 A2983 RMK A01 T01980153  RH  075%=      5-min Rain = 0
KES1 241328Z 18004KT 20/15 A2983 RMK A01 T01990152  RH  075%=      5-min Rain = 0
KES1 241329Z 18005KT 20/15 A2983 RMK A01 T01990151  RH  074%=      5-min Rain = 0
KES1 241330Z 18004KT 20/15 A2983 RMK A01 T01990150  RH  074%=      5-min Rain = 0
KES1 241331Z 19004KT 20/15 A2983 RMK A01 T01990150  RH  074%=      5-min Rain = 0
KES1 241332Z 22004KT 20/15 A2983 RMK A01 T01990150  RH  074%=      5-min Rain = 0
KES1 241333Z 22004KT 20/15 A2983 RMK A01 T01990148  RH  073%=      5-min Rain = 0
KES1 241334Z 16004KT 20/15 A2983 RMK A01 T01990151  RH  074%=      5-min Rain = 0
KES1 241335Z 20005KT 20/15 A2983 RMK A01 T02000153  RH  074%=      5-min Rain = 0
KES1 241336Z 18005KT 20/15 A2983 RMK A01 T02000149  RH  072%=      5-min Rain = 0
KES1 241337Z 19008KT 20/15 A2983 RMK A01 T02000150  RH  073%=      5-min Rain = 0
KES1 241338Z 20006KT 20/15 A2983 RMK A01 T02000151  RH  073%=      5-min Rain = 0
KES1 241339Z 18004KT 20/15 A2983 RMK A01 T01990150  RH  073%=      5-min Rain = 0
KES1 241340Z 15006KT 20/15 A2983 RMK A01 T02000153  RH  074%=      5-min Rain = 0
KES1 241341Z 17006G11KT 20/15 A2983 RMK A01 T02000153  RH  074%=      5-min Rain = 0
KES1 241342Z 16005KT 20/15 A2983 RMK A01 T02000149  RH  072%=      5-min Rain = 0
KES1 241343Z 16006KT 20/15 A2983 RMK A01 T02010153  RH  074%=      5-min Rain = 0
KES1 241344Z 17007KT 20/15 A2983 RMK A01 T02020152  RH  073%=      5-min Rain = 0
KES1 241345Z 17005KT 20/15 A2983 RMK A01 T02030153  RH  073%=      5-min Rain = 0
KES1 241346Z 17009KT 20/15 A2983 RMK A01 T02030152  RH  072%=      5-min Rain = 0
KES1 241347Z 16010KT 20/15 A2983 RMK A01 T02030151  RH  072%=      5-min Rain = 0
KES1 241348Z 16010KT 20/15 A2983 RMK A01 T02040151  RH  072%=      5-min Rain = 0
KES1 241349Z 17007KT 20/15 A2983 RMK A01 T02040153  RH  072%=      5-min Rain = 0
KES1 241350Z 17010KT 20/15 A2983 RMK A01 T02040154  RH  073%=      5-min Rain = 0
KES1 241351Z 17010G15KT 20/15 A2983 RMK A01 T02040153  RH  072%=      5-min Rain = 0
KES1 241352Z 16009KT 21/15 A2983 RMK A01 T02050154  RH  072%=      5-min Rain = 0
KES1 241353Z 16007KT 21/15 A2983 RMK A01 T02050154  RH  072%=      5-min Rain = 0
KES1 241354Z 15009KT 21/16 A2983 RMK A01 T02060155  RH  073%=      5-min Rain = 0
KES1 241355Z 14011KT 21/16 A2983 RMK A01 T02060155  RH  072%=      5-min Rain = 0
KES1 241356Z 14011KT 21/16 A2983 RMK A01 T02070156  RH  073%=      5-min Rain = 0
KES1 241357Z 15011KT 21/16 A2983 RMK A01 T02090158  RH  073%=      5-min Rain = 0
KES1 241358Z 15012KT 21/16 A2983 RMK A01 T02100158  RH  072%=      5-min Rain = 0
KES1 241359Z 16011KT 21/16 A2983 RMK A01 T02110158  RH  072%=      5-min Rain = 0
KES1 241400Z 16011KT 21/16 A2983 RMK A01 T02120159  RH  071%=      5-min Rain = 0
KES1 241401Z 15012KT 21/16 A2983 RMK A01 T02130159  RH  071%=      5-min Rain = 0
KES1 241402Z 16010KT 21/16 A2983 RMK A01 T02130159  RH  071%=      5-min Rain = 0
KES1 241403Z 16009KT 21/16 A2983 RMK A01 T02130159  RH  071%=      5-min Rain = 0
KES1 241404Z 16010KT 21/16 A2983 RMK A01 T02130159  RH  071%=      5-min Rain = 0
KES1 241405Z 16008KT 21/16 A2983 RMK A01 T02130159  RH  071%=      5-min Rain = 0
KES1 241406Z 14010KT 21/16 A2983 RMK A01 T02130163  RH  073%=      5-min Rain = 0
KES1 241407Z 14012KT 22/16 A2983 RMK A01 T02150161  RH  072%=      5-min Rain = 0
KES1 241408Z 15010KT 22/16 A2983 RMK A01 T02160162  RH  071%=      5-min Rain = 0
KES1 241409Z 16012KT 22/16 A2983 RMK A01 T02160162  RH  071%=      5-min Rain = 0
KES1 241410Z 16010KT 22/16 A2983 RMK A01 T02160161  RH  071%=      5-min Rain = 0
KES1 241411Z 15006KT 22/16 A2983 RMK A01 T02170164  RH  072%=      5-min Rain = 0
KES1 241412Z 15010KT 22/16 A2983 RMK A01 T02170163  RH  071%=      5-min Rain = 0
KES1 241413Z 14009KT 22/17 A2983 RMK A01 T02170165  RH  072%=      5-min Rain = 0
KES1 241414Z 15009KT 22/16 A2983 RMK A01 T02180163  RH  071%=      5-min Rain = 0
KES1 241415Z 14011KT 22/17 A2983 RMK A01 T02180165  RH  072%=      5-min Rain = 0
KES1 241416Z 15012KT 22/16 A2983 RMK A01 T02180164  RH  071%=      5-min Rain = 0
KES1 241417Z 16010KT 22/17 A2982 RMK A01 T02170165  RH  072%=      5-min Rain = 0
KES1 241418Z 14010KT 22/17 A2982 RMK A01 T02170166  RH  073%=      5-min Rain = 0
KES1 241419Z 15010KT 22/17 A2982 RMK A01 T02190166  RH  072%=      5-min Rain = 0
KES1 241420Z 15011G16KT 22/17 A2982 RMK A01 T02190168  RH  073%=      5-min Rain = 0
KES1 241421Z 16014KT 22/17 A2982 RMK A01 T02200169  RH  073%=      5-min Rain = 0
KES1 241422Z 16011KT 22/17 A2982 RMK A01 T02210169  RH  072%=      5-min Rain = 0
KES1 241423Z 15012KT 22/17 A2982 RMK A01 T02220170  RH  072%=      5-min Rain = 0
KES1 241424Z 15012G17KT 22/17 A2982 RMK A01 T02230169  RH  072%=      5-min Rain = 0
KES1 241425Z 15014KT 22/17 A2982 RMK A01 T02220169  RH  072%=      5-min Rain = 0
KES1 241426Z 15014KT 22/17 A2982 RMK A01 T02220169  RH  072%=      5-min Rain = 0
KES1 241427Z 15014KT 22/17 A2982 RMK A01 T02220169  RH  072%=      5-min Rain = 0
KES1 241428Z 15012KT 22/17 A2982 RMK A01 T02210169  RH  072%=      5-min Rain = 0
KES1 241429Z 15013KT 22/17 A2982 RMK A01 T02210170  RH  073%=      5-min Rain = 0
KES1 241430Z 16013G18KT 22/17 A2982 RMK A01 T02220170  RH  072%=      5-min Rain = 0
KES1 241431Z 15011KT 22/17 A2982 RMK A01 T02230172  RH  073%=      5-min Rain = 0
KES1 241432Z 15013KT 22/17 A2982 RMK A01 T02240170  RH  072%=      5-min Rain = 0
KES1 241433Z 15013KT 22/17 A2982 RMK A01 T02240171  RH  072%=      5-min Rain = 0
KES1 241434Z 15013KT 22/17 A2982 RMK A01 T02240171  RH  072%=      5-min Rain = 0
KES1 241435Z 16012KT 22/17 A2982 RMK A01 T02240171  RH  072%=      5-min Rain = 0
KES1 241436Z 16013KT 23/17 A2982 RMK A01 T02250171  RH  071%=      5-min Rain = 0
KES1 241437Z 16011G16KT 23/17 A2982 RMK A01 T02250173  RH  072%=      5-min Rain = 0
KES1 241438Z 16015KT 23/17 A2982 RMK A01 T02260173  RH  072%=      5-min Rain = 0
KES1 241439Z 15013KT 23/18 A2982 RMK A01 T02280175  RH  072%=      5-min Rain = 0
KES1 241440Z 16017G22KT 23/18 A2982 RMK A01 T02290175  RH  071%=      5-min Rain = 0
KES1 241441Z 16014KT 23/18 A2982 RMK A01 T02290175  RH  071%=      5-min Rain = 0
KES1 241442Z 16015KT 23/18 A2982 RMK A01 T02290175  RH  071%=      5-min Rain = 0
KES1 241443Z 15014G19KT 23/18 A2982 RMK A01 T02290176  RH  072%=      5-min Rain = 0
KES1 241444Z 16013KT 23/18 A2982 RMK A01 T02290175  RH  072%=      5-min Rain = 0
KES1 241445Z 16011KT 23/18 A2982 RMK A01 T02300177  RH  072%=      5-min Rain = 0
KES1 241446Z 16012KT 23/18 A2982 RMK A01 T02320176  RH  071%=      5-min Rain = 0
KES1 241447Z 17012G17KT 23/18 A2982 RMK A01 T02320177  RH  071%=      5-min Rain = 0
KES1 241448Z 17011KT 23/18 A2982 RMK A01 T02340179  RH  071%=      5-min Rain = 0
KES1 241449Z 17014KT 24/18 A2982 RMK A01 T02350179  RH  070%=      5-min Rain = 0
KES1 241450Z 16015KT 24/18 A2982 RMK A01 T02360178  RH  070%=      5-min Rain = 0
KES1 241451Z 16012KT 24/18 A2982 RMK A01 T02350178  RH  070%=      5-min Rain = 0
KES1 241452Z 15011KT 24/18 A2982 RMK A01 T02350179  RH  071%=      5-min Rain = 0
KES1 241453Z 16013KT 24/18 A2982 RMK A01 T02360179  RH  070%=      5-min Rain = 0
KES1 241454Z 16014G19KT 24/18 A2982 RMK A01 T02370179  RH  070%=      5-min Rain = 0
KES1 241455Z 16016KT 24/18 A2982 RMK A01 T02360178  RH  070%=      5-min Rain = 0
KES1 241456Z 18011KT 24/18 A2982 RMK A01 T02350179  RH  071%=      5-min Rain = 0
KES1 241457Z 17011G17KT 24/18 A2982 RMK A01 T02370181  RH  071%=      5-min Rain = 0
KES1 241458Z 17012KT 24/18 A2982 RMK A01 T02390180  RH  070%=      5-min Rain = 0
KES1 241459Z 17011G16KT 24/18 A2982 RMK A01 T02390178  RH  069%=      5-min Rain = 0
KES1 241500Z 17008KT 24/18 A2982 RMK A01 T02390180  RH  070%=      5-min Rain = 0
KES1 241501Z 16014KT 24/18 A2982 RMK A01 T02400181  RH  070%=      5-min Rain = 0
KES1 241502Z 16015KT 24/18 A2982 RMK A01 T02410179  RH  068%=      5-min Rain = 0
KES1 241503Z 16011KT 24/18 A2982 RMK A01 T02400180  RH  069%=      5-min Rain = 0
KES1 241504Z 16012G17KT 24/18 A2982 RMK A01 T02410181  RH  069%=      5-min Rain = 0
KES1 241505Z 17011G17KT 24/18 A2982 RMK A01 T02420180  RH  068%=      5-min Rain = 0
KES1 241506Z 17012KT 24/18 A2982 RMK A01 T02420180  RH  068%=      5-min Rain = 0
KES1 241507Z 16012G17KT 24/18 A2982 RMK A01 T02430182  RH  069%=      5-min Rain = 0
KES1 241508Z 16014KT 24/18 A2982 RMK A01 T02430180  RH  068%=      5-min Rain = 0
KES1 241509Z 16013KT 24/18 A2982 RMK A01 T02420180  RH  068%=      5-min Rain = 0
KES1 241510Z 17011KT 24/18 A2982 RMK A01 T02420181  RH  069%=      5-min Rain = 0
KES1 241511Z 16015KT 24/18 A2982 RMK A01 T02420180  RH  068%=      5-min Rain = 0
KES1 241512Z 16014KT 24/18 A2982 RMK A01 T02410180  RH  069%=      5-min Rain = 0
KES1 241513Z 16013G18KT 24/18 A2982 RMK A01 T02410178  RH  068%=      5-min Rain = 0
KES1 241514Z 16016KT 24/18 A2982 RMK A01 T02390178  RH  068%=      5-min Rain = 0
KES1 241515Z 15016KT 24/18 A2982 RMK A01 T02390178  RH  069%=      5-min Rain = 0
KES1 241516Z 16013G18KT 24/18 A2982 RMK A01 T02390178  RH  069%=      5-min Rain = 0
KES1 241517Z 17012G17KT 24/18 A2982 RMK A01 T02400178  RH  068%=      5-min Rain = 0
KES1 241518Z 16010KT 24/18 A2982 RMK A01 T02410180  RH  069%=      5-min Rain = 0
KES1 241519Z 18009KT 24/18 A2982 RMK A01 T02430182  RH  069%=      5-min Rain = 0
KES1 241520Z 16011G17KT 25/19 A2982 RMK A01 T02470185  RH  068%=      5-min Rain = 0
KES1 241521Z 16015KT 25/18 A2982 RMK A01 T02490181  RH  066%=      5-min Rain = 0
KES1 241522Z 15013KT 25/18 A2981 RMK A01 T02470179  RH  066%=      5-min Rain = 0
KES1 241523Z 15013KT 25/18 A2981 RMK A01 T02460179  RH  066%=      5-min Rain = 0
KES1 241524Z 17011G16KT 25/18 A2981 RMK A01 T02460179  RH  067%=      5-min Rain = 0
KES1 241525Z 16009KT 25/18 A2981 RMK A01 T02460181  RH  067%=      5-min Rain = 0
KES1 241526Z 17013KT 25/18 A2981 RMK A01 T02480181  RH  066%=      5-min Rain = 0
KES1 241527Z 17015KT 25/18 A2981 RMK A01 T02490179  RH  065%=      5-min Rain = 0
KES1 241528Z 17015KT 25/18 A2981 RMK A01 T02480178  RH  065%=      5-min Rain = 0
KES1 241529Z 16013KT 25/18 A2981 RMK A01 T02460177  RH  066%=      5-min Rain = 0
KES1 241530Z 15013KT 25/18 A2981 RMK A01 T02450180  RH  067%=      5-min Rain = 0
KES1 241531Z 15013KT 25/18 A2981 RMK A01 T02470181  RH  067%=      5-min Rain = 0
KES1 241532Z 16013KT 25/18 A2981 RMK A01 T02480181  RH  066%=      5-min Rain = 0
KES1 241533Z 15013KT 25/18 A2981 RMK A01 T02490181  RH  066%=      5-min Rain = 0
KES1 241534Z 16013G18KT 25/18 A2981 RMK A01 T02500180  RH  065%=      5-min Rain = 0
KES1 241535Z 18013G18KT 25/18 A2981 RMK A01 T02520180  RH  065%=      5-min Rain = 0
KES1 241536Z 17015KT 25/18 A2981 RMK A01 T02520178  RH  064%=      5-min Rain = 0
KES1 241537Z 17014KT 25/18 A298 RMK A01 T02500178  RH  064%=      5-min Rain = 0
KES1 241538Z 17015KT 25/18 A298 RMK A01 T02500179  RH  064%=      5-min Rain = 0
KES1 241539Z 16014G19KT 25/18 A2981 RMK A01 T02510177  RH  064%=      5-min Rain = 0
KES1 241540Z 17013G18KT 25/18 A298 RMK A01 T02510177  RH  063%=      5-min Rain = 0
KES1 241541Z 15014KT 25/18 A298 RMK A01 T02500177  RH  064%=      5-min Rain = 0
KES1 241542Z 16015G20KT 25/18 A298 RMK A01 T02510178  RH  064%=      5-min Rain = 0
KES1 241543Z 16014G19KT 25/18 A2981 RMK A01 T02520177  RH  063%=      5-min Rain = 0
KES1 241544Z 15015KT 25/18 A298 RMK A01 T02510178  RH  064%=      5-min Rain = 0
KES1 241545Z 15011KT 25/18 A2981 RMK A01 T02510176  RH  063%=      5-min Rain = 0
KES1 241546Z 15010KT 25/18 A2981 RMK A01 T02520181  RH  065%=      5-min Rain = 0
KES1 241547Z 16012KT 25/18 A2981 RMK A01 T02540180  RH  063%=      5-min Rain = 0
KES1 241548Z 16014KT 26/18 A2981 RMK A01 T02560179  RH  063%=      5-min Rain = 0
KES1 241549Z 16011KT 26/18 A2981 RMK A01 T02550177  RH  062%=      5-min Rain = 0
KES1 241550Z 16010KT 26/18 A2981 RMK A01 T02550179  RH  063%=      5-min Rain = 0
KES1 241551Z 17011KT 26/18 A2981 RMK A01 T02560180  RH  063%=      5-min Rain = 0
KES1 241552Z 17009KT 26/18 A298 RMK A01 T02570180  RH  062%=      5-min Rain = 0
KES1 241553Z 18010KT 26/18 A2981 RMK A01 T02590182  RH  062%=      5-min Rain = 0
KES1 241554Z 17007KT 26/18 A2981 RMK A01 T02610183  RH  062%=      5-min Rain = 0
KES1 241555Z 16010KT 26/18 A298 RMK A01 T02620182  RH  061%=      5-min Rain = 0
KES1 241556Z 16012KT 26/18 A298 RMK A01 T02630180  RH  061%=      5-min Rain = 0
KES1 241557Z 17012KT 26/18 A298 RMK A01 T02620179  RH  060%=      5-min Rain = 0
KES1 241558Z 16012KT 26/18 A298 RMK A01 T02600179  RH  061%=      5-min Rain = 0
KES1 241559Z 16010KT 26/18 A298 RMK A01 T02600178  RH  060%=      5-min Rain = 0
KES1 241600Z 14011KT 26/18 A298 RMK A01 T02610182  RH  062%=      5-min Rain = 0
KES1 241601Z 16011G17KT 26/18 A298 RMK A01 T02620180  RH  061%=      5-min Rain = 0
KES1 241602Z 18010KT 26/18 A298 RMK A01 T02630181  RH  061%=      5-min Rain = 0
KES1 241603Z 18007KT 26/18 A298 RMK A01 T02640177  RH  059%=      5-min Rain = 0
KES1 241604Z 16011G16KT 26/18 A298 RMK A01 T02620180  RH  060%=      5-min Rain = 0
KES1 241605Z 16014KT 26/18 A298 RMK A01 T02630177  RH  059%=      5-min Rain = 0
KES1 241606Z 16012KT 26/18 A298 RMK A01 T02640178  RH  059%=      5-min Rain = 0
KES1 241607Z 17012KT 26/18 A298 RMK A01 T02640177  RH  059%=      5-min Rain = 0
KES1 241608Z 18014G19KT 27/18 A298 RMK A01 T02650175  RH  057%=      5-min Rain = 0
KES1 241609Z 17015KT 27/17 A298 RMK A01 T02660174  RH  057%=      5-min Rain = 0
KES1 241610Z 18012KT 27/18 A298 RMK A01 T02660175  RH  057%=      5-min Rain = 0
KES1 241611Z 17013KT 27/18 A298 RMK A01 T02680176  RH  057%=      5-min Rain = 0
KES1 241612Z 17010G17KT 27/18 A298 RMK A01 T02690175  RH  056%=      5-min Rain = 0
KES1 241613Z 18014KT 27/17 A298 RMK A01 T02690174  RH  056%=      5-min Rain = 0
KES1 241614Z 18011KT 27/17 A298 RMK A01 T02690174  RH  056%=      5-min Rain = 0
KES1 241615Z 19009KT 27/17 A298 RMK A01 T02710174  RH  055%=      5-min Rain = 0
KES1 241616Z 20014KT 27/17 A2979 RMK A01 T02730173  RH  054%=      5-min Rain = 0
KES1 241617Z 19010KT 27/17 A2979 RMK A01 T02730170  RH  053%=      5-min Rain = 0
KES1 241618Z 20013KT 27/17 A298 RMK A01 T02740173  RH  054%=      5-min Rain = 0
KES1 241619Z 20017G22KT 28/17 A2979 RMK A01 T02750167  RH  052%=      5-min Rain = 0
KES1 241620Z 20017G22KT 27/17 A2979 RMK A01 T02740165  RH  051%=      5-min Rain = 0
KES1 241621Z 20014G20KT 27/16 A2979 RMK A01 T02740164  RH  051%=      5-min Rain = 0
KES1 241622Z 18011KT 27/17 A298 RMK A01 T02740169  RH  053%=      5-min Rain = 0
KES1 241623Z 19012KT 28/17 A298 RMK A01 T02780172  RH  052%=      5-min Rain = 0
KES1 241624Z 19018KT 28/17 A298 RMK A01 T02790168  RH  051%=      5-min Rain = 0
KES1 241625Z 19015KT 28/16 A2979 RMK A01 T02780163  RH  050%=      5-min Rain = 0
KES1 241626Z 19016G24KT 28/17 A2979 RMK A01 T02770165  RH  051%=      5-min Rain = 0
KES1 241627Z 19018KT 28/16 A2979 RMK A01 T02770162  RH  049%=      5-min Rain = 0
KES1 241628Z 19015G23KT 28/16 A2979 RMK A01 T02780164  RH  050%=      5-min Rain = 0
KES1 241629Z 19015KT 28/16 A2979 RMK A01 T02790164  RH  049%=      5-min Rain = 0
KES1 241630Z 19016G21KT 28/16 A2979 RMK A01 T02790163  RH  049%=      5-min Rain = 0
KES1 241631Z 17016G22KT 28/16 A2979 RMK A01 T02790163  RH  049%=      5-min Rain = 0
KES1 241632Z 19017KT 28/16 A2979 RMK A01 T02800161  RH  048%=      5-min Rain = 0
KES1 241633Z 19016KT 28/16 A2979 RMK A01 T02780161  RH  049%=      5-min Rain = 0
KES1 241634Z 20015KT 28/16 A2979 RMK A01 T02780162  RH  049%=      5-min Rain = 0
KES1 241635Z 20016KT 28/16 A2979 RMK A01 T02780162  RH  049%=      5-min Rain = 0
KES1 241636Z 19016KT 28/16 A2979 RMK A01 T02780161  RH  049%=      5-min Rain = 0
KES1 241637Z 20020G26KT 28/16 A2979 RMK A01 T02780161  RH  049%=      5-min Rain = 0
KES1 241638Z 19019G24KT 28/16 A2979 RMK A01 T02780161  RH  049%=      5-min Rain = 0
KES1 241639Z 18014KT 28/16 A298 RMK A01 T02780163  RH  049%=      5-min Rain = 0
KES1 241640Z 18015KT 28/16 A298 RMK A01 T02800163  RH  049%=      5-min Rain = 0
KES1 241641Z 19014G19KT 28/16 A298 RMK A01 T02820161  RH  048%=      5-min Rain = 0
KES1 241642Z 19013G19KT 28/17 A298 RMK A01 T02810165  RH  049%=      5-min Rain = 0
KES1 241643Z 18014G21KT 28/16 A298 RMK A01 T02820162  RH  048%=      5-min Rain = 0
KES1 241644Z 18011KT 28/16 A298 RMK A01 T02820163  RH  048%=      5-min Rain = 0
KES1 241645Z 19008G13KT 28/17 A298 RMK A01 T02820167  RH  049%=      5-min Rain = 0
KES1 241646Z 17013G18KT 29/17 A298 RMK A01 T02850167  RH  049%=      5-min Rain = 0
KES1 241647Z 19014KT 29/16 A298 RMK A01 T02870163  RH  047%=      5-min Rain = 0
KES1 241648Z 18014KT 29/16 A298 RMK A01 T02850162  RH  047%=      5-min Rain = 0
KES1 241649Z 18013KT 29/17 A2979 RMK A01 T02850165  RH  048%=      5-min Rain = 0
KES1 241650Z 18011KT 29/17 A2979 RMK A01 T02860165  RH  048%=      5-min Rain = 0
KES1 241651Z 18010G15KT 29/17 A298 RMK A01 T02870166  RH  048%=      5-min Rain = 0
KES1 241652Z 17014G19KT 29/16 A2979 RMK A01 T02870164  RH  047%=      5-min Rain = 0
KES1 241653Z 17015KT 29/16 A298 RMK A01 T02870164  RH  047%=      5-min Rain = 0
KES1 241654Z 16012KT 29/16 A298 RMK A01 T02870163  RH  047%=      5-min Rain = 0
KES1 241655Z 16014KT 29/16 A2979 RMK A01 T02850159  RH  046%=      5-min Rain = 0
KES1 241656Z 16015G20KT 28/16 A2979 RMK A01 T02830161  RH  048%=      5-min Rain = 0
KES1 241657Z 17012G17KT 28/17 A298 RMK A01 T02840165  RH  049%=      5-min Rain = 0
KES1 241658Z 19012KT 29/17 A298 RMK A01 T02870166  RH  048%=      5-min Rain = 0
KES1 241659Z 18015KT 29/17 A2979 RMK A01 T02880165  RH  047%=      5-min Rain = 0
KES1 241700Z 17018G23KT 29/16 A2979 RMK A01 T02880164  RH  047%=      5-min Rain = 0
KES1 241701Z 18012G17KT 29/17 A298 RMK A01 T02870165  RH  048%=      5-min Rain = 0
KES1 241702Z 18015G21KT 29/16 A298 RMK A01 T02870164  RH  047%=      5-min Rain = 0
KES1 241703Z 18014KT 29/17 A298 RMK A01 T02870165  RH  048%=      5-min Rain = 0
KES1 241704Z 18012G17KT 29/17 A298 RMK A01 T02880166  RH  048%=      5-min Rain = 0
KES1 241705Z 17010KT 29/17 A298 RMK A01 T02880166  RH  048%=      5-min Rain = 0
KES1 241706Z 19011G19KT 29/17 A298 RMK A01 T02890169  RH  048%=      5-min Rain = 0
KES1 241707Z 17019G25KT 29/17 A298 RMK A01 T02900165  RH  047%=      5-min Rain = 0
KES1 241708Z 17014KT 29/17 A298 RMK A01 T02880166  RH  047%=      5-min Rain = 0
KES1 241709Z 17018G23KT 29/17 A2979 RMK A01 T02880165  RH  047%=      5-min Rain = 0
KES1 241710Z 19018KT 29/16 A298 RMK A01 T02870161  RH  047%=      5-min Rain = 0
KES1 241711Z 18014KT 28/16 A298 RMK A01 T02840161  RH  047%=      5-min Rain = 0
KES1 241712Z 20016KT 28/16 A298 RMK A01 T02830164  RH  048%=      5-min Rain = 0
KES1 241713Z 19014G20KT 29/17 A298 RMK A01 T02860167  RH  049%=      5-min Rain = 0
KES1 241714Z 20015KT 29/17 A298 RMK A01 T02880165  RH  048%=      5-min Rain = 0
KES1 241715Z 20017KT 29/16 A2979 RMK A01 T02860164  RH  047%=      5-min Rain = 0
KES1 241716Z 19013KT 29/16 A298 RMK A01 T02850164  RH  048%=      5-min Rain = 0
KES1 241717Z 19012KT 29/17 A298 RMK A01 T02850167  RH  049%=      5-min Rain = 0
KES1 241718Z 18014KT 29/17 A298 RMK A01 T02860165  RH  048%=      5-min Rain = 0
KES1 241719Z 18016G21KT 29/17 A298 RMK A01 T02870165  RH  048%=      5-min Rain = 0
KES1 241720Z 16014KT 29/17 A298 RMK A01 T02870165  RH  048%=      5-min Rain = 0
KES1 241721Z 18014G19KT 29/17 A298 RMK A01 T02860166  RH  048%=      5-min Rain = 0
KES1 241722Z 17014G20KT 29/17 A298 RMK A01 T02860165  RH  048%=      5-min Rain = 0
KES1 241723Z 17015G21KT 29/17 A298 RMK A01 T02870167  RH  048%=      5-min Rain = 0
KES1 241724Z 17019G24KT 29/16 A2979 RMK A01 T02880164  RH  047%=      5-min Rain = 0
KES1 241725Z 17017G23KT 29/16 A298 RMK A01 T02860164  RH  047%=      5-min Rain = 0
KES1 241726Z 18014G19KT 29/17 A298 RMK A01 T02870166  RH  048%=      5-min Rain = 0
KES1 241727Z 17014G19KT 29/17 A298 RMK A01 T02870167  RH  048%=      5-min Rain = 0
KES1 241728Z 16016G22KT 29/17 A298 RMK A01 T02880165  RH  047%=      5-min Rain = 0
KES1 241729Z 17011KT 29/16 A2979 RMK A01 T02860164  RH  048%=      5-min Rain = 0
KES1 241730Z 17010KT 29/17 A2979 RMK A01 T02860168  RH  049%=      5-min Rain = 0
KES1 241731Z 19015KT 29/17 A2979 RMK A01 T02890168  RH  048%=      5-min Rain = 0
KES1 241732Z 18014KT 29/17 A2979 RMK A01 T02890167  RH  048%=      5-min Rain = 0
KES1 241733Z 17017KT 29/17 A2979 RMK A01 T02890166  RH  047%=      5-min Rain = 0
KES1 241734Z 17017G22KT 29/17 A2979 RMK A01 T02870165  RH  048%=      5-min Rain = 0
KES1 241735Z 17013KT 29/17 A2979 RMK A01 T02860166  RH  048%=      5-min Rain = 0
KES1 241736Z 16016KT 29/17 A2979 RMK A01 T02860166  RH  048%=      5-min Rain = 0
KES1 241737Z 18014G20KT 29/17 A2979 RMK A01 T02890170  RH  049%=      5-min Rain = 0
KES1 241738Z 19017G22KT 29/17 A2979 RMK A01 T02910166  RH  047%=      5-min Rain = 0
KES1 241739Z 18011G18KT 29/17 A2979 RMK A01 T02890169  RH  048%=      5-min Rain = 0
KES1 241740Z 17017G24KT 29/17 A2979 RMK A01 T02900167  RH  047%=      5-min Rain = 0
KES1 241741Z 16014G19KT 29/17 A2979 RMK A01 T02900167  RH  047%=      5-min Rain = 0
KES1 241742Z 15017G24KT 29/17 A2979 RMK A01 T02880168  RH  048%=      5-min Rain = 0
KES1 241743Z 17019G24KT 29/17 A2979 RMK A01 T02880166  RH  047%=      5-min Rain = 0
KES1 241744Z 17013G18KT 29/17 A2979 RMK A01 T02870167  RH  048%=      5-min Rain = 0
KES1 241745Z 17014KT 29/17 A2979 RMK A01 T02880167  RH  048%=      5-min Rain = 0
KES1 241746Z 18014G21KT 29/17 A2979 RMK A01 T02880167  RH  048%=      5-min Rain = 0
KES1 241747Z 17012KT 29/17 A2979 RMK A01 T02890171  RH  049%=      5-min Rain = 0
KES1 241748Z 16011KT 29/17 A2979 RMK A01 T02910170  RH  048%=      5-min Rain = 0
KES1 241749Z 16010KT 29/17 A2979 RMK A01 T02930174  RH  049%=      5-min Rain = 0
KES1 241750Z 16016G21KT 30/17 A2979 RMK A01 T02950171  RH  047%=      5-min Rain = 0
KES1 241751Z 17016G21KT 29/17 A2979 RMK A01 T02930169  RH  047%=      5-min Rain = 0
KES1 241752Z 18015KT 29/17 A2979 RMK A01 T02910169  RH  048%=      5-min Rain = 0
KES1 241753Z 18015KT 29/17 A2979 RMK A01 T02910169  RH  048%=      5-min Rain = 0
KES1 241754Z 19016KT 29/17 A2979 RMK A01 T02910168  RH  047%=      5-min Rain = 0
KES1 241755Z 18017KT 29/17 A2979 RMK A01 T02900166  RH  047%=      5-min Rain = 0
KES1 241756Z 18017KT 29/17 A2979 RMK A01 T02880167  RH  048%=      5-min Rain = 0
KES1 241757Z 17015G22KT 29/17 A2979 RMK A01 T02880169  RH  049%=      5-min Rain = 0
KES1 241758Z 18014KT 29/17 A2979 RMK A01 T02890168  RH  048%=      5-min Rain = 0
KES1 241759Z 17015KT 29/17 A2979 RMK A01 T02900169  RH  048%=      5-min Rain = 0
KES1 241800Z 18018KT 29/17 A2979 RMK A01 T02900167  RH  047%=      5-min Rain = 0
KES1 241801Z 17017KT 29/17 A2979 RMK A01 T02890169  RH  048%=      5-min Rain = 0
KES1 241802Z 17014KT 29/17 A2979 RMK A01 T02900169  RH  048%=      5-min Rain = 0
KES1 241803Z 17013KT 29/17 A2979 RMK A01 T02910170  RH  048%=      5-min Rain = 0
KES1 241804Z 17009G14KT 29/17 A2979 RMK A01 T02910172  RH  049%=      5-min Rain = 0
KES1 241805Z 18012KT 29/17 A2979 RMK A01 T02940173  RH  048%=      5-min Rain = 0
KES1 241806Z 17013KT 29/17 A2979 RMK A01 T02940170  RH  047%=      5-min Rain = 0
KES1 241807Z 17011KT 29/17 A2979 RMK A01 T02930173  RH  048%=      5-min Rain = 0
KES1 241808Z 17013KT 30/17 A2979 RMK A01 T02950172  RH  048%=      5-min Rain = 0
KES1 241809Z 17014G19KT 30/17 A2979 RMK A01 T02960172  RH  047%=      5-min Rain = 0
KES1 241810Z 16012G17KT 30/17 A2979 RMK A01 T02960173  RH  048%=      5-min Rain = 0
KES1 241811Z 16018KT 30/17 A2979 RMK A01 T02960171  RH  047%=      5-min Rain = 0
KES1 241812Z 16014KT 30/17 A2979 RMK A01 T02950172  RH  048%=      5-min Rain = 0
KES1 241813Z 17011G17KT 29/17 A2979 RMK A01 T02930169  RH  047%=      5-min Rain = 0
KES1 241814Z 15016G21KT 29/17 A2979 RMK A01 T02930172  RH  048%=      5-min Rain = 0
KES1 241815Z 15015KT 29/17 A2979 RMK A01 T02930171  RH  048%=      5-min Rain = 0
KES1 241816Z 15013KT 29/17 A2978 RMK A01 T02910170  RH  048%=      5-min Rain = 0
KES1 241817Z 15015KT 29/17 A2978 RMK A01 T02910173  RH  049%=      5-min Rain = 0
KES1 241818Z 17013G19KT 29/17 A2978 RMK A01 T02920172  RH  048%=      5-min Rain = 0
KES1 241819Z 17014G19KT 29/17 A2978 RMK A01 T02930173  RH  048%=      5-min Rain = 0
KES1 241820Z 17013G19KT 30/18 A2978 RMK A01 T02960177  RH  049%=      5-min Rain = 0
KES1 241821Z 16018KT 30/17 A2978 RMK A01 T02980172  RH  047%=      5-min Rain = 0
KES1 241822Z 16011G16KT 30/17 A2978 RMK A01 T02960174  RH  048%=      5-min Rain = 0
KES1 241823Z 18013KT 30/18 A2978 RMK A01 T02970177  RH  049%=      5-min Rain = 0
KES1 241824Z 17011G17KT 30/18 A2978 RMK A01 T02990175  RH  047%=      5-min Rain = 0
KES1 241825Z 17013KT 30/17 A2978 RMK A01 T02990171  RH  046%=      5-min Rain = 0
KES1 241826Z 16012KT 30/17 A2978 RMK A01 T02960172  RH  047%=      5-min Rain = 0
KES1 241827Z 17011KT 30/17 A2978 RMK A01 T02960173  RH  048%=      5-min Rain = 0
KES1 241828Z 17009G16KT 30/18 A2978 RMK A01 T02970177  RH  048%=      5-min Rain = 0
KES1 241829Z 18011KT 30/18 A2978 RMK A01 T03000179  RH  048%=      5-min Rain = 0
KES1 241830Z 18013KT 30/18 A2978 RMK A01 T03020175  RH  047%=      5-min Rain = 0
KES1 241831Z 17009KT 30/18 A2978 RMK A01 T03000178  RH  048%=      5-min Rain = 0
KES1 241832Z 15011KT 30/18 A2978 RMK A01 T03010177  RH  047%=      5-min Rain = 0
KES1 241833Z 15011KT 30/18 A2978 RMK A01 T03000176  RH  047%=      5-min Rain = 0
KES1 241834Z 18009KT 30/18 A2978 RMK A01 T02980177  RH  048%=      5-min Rain = 0
KES1 241835Z 17011KT 30/18 A2978 RMK A01 T02990175  RH  047%=      5-min Rain = 0
KES1 241836Z 16011KT 30/18 A2978 RMK A01 T03000178  RH  048%=      5-min Rain = 0
KES1 241837Z 17012KT 30/18 A2978 RMK A01 T03000177  RH  048%=      5-min Rain = 0
KES1 241838Z 16012KT 30/18 A2978 RMK A01 T03000178  RH  048%=      5-min Rain = 0
KES1 241839Z 16015G20KT 30/18 A2977 RMK A01 T03010177  RH  047%=      5-min Rain = 0
KES1 241840Z 17015KT 30/17 A2977 RMK A01 T03000174  RH  047%=      5-min Rain = 0
KES1 241841Z 15014G20KT 30/18 A2977 RMK A01 T02990176  RH  048%=      5-min Rain = 0
KES1 241842Z 16016KT 30/18 A2977 RMK A01 T02980176  RH  048%=      5-min Rain = 0
KES1 241843Z 15013G18KT 30/18 A2977 RMK A01 T02980175  RH  048%=      5-min Rain = 0
KES1 241844Z 14015KT 30/18 A2977 RMK A01 T02980175  RH  048%=      5-min Rain = 0
KES1 241845Z 15011KT 30/18 A2977 RMK A01 T02970177  RH  048%=      5-min Rain = 0
KES1 241846Z 16016KT 30/17 A2977 RMK A01 T02980174  RH  047%=      5-min Rain = 0
KES1 241847Z 16014KT 30/18 A2977 RMK A01 T02980176  RH  048%=      5-min Rain = 0
KES1 241848Z 16013G18KT 30/17 A2977 RMK A01 T02980174  RH  047%=      5-min Rain = 0
KES1 241849Z 15012KT 30/18 A2977 RMK A01 T02980176  RH  048%=      5-min Rain = 0
KES1 241850Z 16012KT 30/18 A2977 RMK A01 T02980176  RH  048%=      5-min Rain = 0
KES1 241851Z 18014KT 30/18 A2977 RMK A01 T02990176  RH  048%=      5-min Rain = 0
KES1 241852Z 18014KT 30/18 A2977 RMK A01 T03000176  RH  047%=      5-min Rain = 0
KES1 241853Z 18014KT 30/18 A2977 RMK A01 T03010175  RH  047%=      5-min Rain = 0
KES1 241854Z 17010KT 30/18 A2977 RMK A01 T03020175  RH  047%=      5-min Rain = 0
KES1 241855Z 18014KT 30/18 A2977 RMK A01 T03010176  RH  047%=      5-min Rain = 0
KES1 241856Z 16011KT 30/18 A2977 RMK A01 T03000175  RH  047%=      5-min Rain = 0
KES1 241857Z 15011KT 30/18 A2977 RMK A01 T02990175  RH  047%=      5-min Rain = 0
KES1 241858Z 16014G19KT 30/18 A2977 RMK A01 T02990177  RH  048%=      5-min Rain = 0
KES1 241859Z 17016G21KT 30/18 A2977 RMK A01 T03000175  RH  047%=      5-min Rain = 0
KES1 241900Z 16015KT 30/18 A2977 RMK A01 T03010176  RH  047%=      5-min Rain = 0
KES1 241901Z 16013KT 30/18 A2977 RMK A01 T03010175  RH  047%=      5-min Rain = 0
KES1 241902Z 15013KT 30/18 A2977 RMK A01 T03000176  RH  047%=      5-min Rain = 0
KES1 241903Z 16012KT 30/18 A2976 RMK A01 T02980175  RH  048%=      5-min Rain = 0
KES1 241904Z 16018KT 30/18 A2976 RMK A01 T02970176  RH  048%=      5-min Rain = 0
KES1 241905Z 17014KT 30/17 A2976 RMK A01 T02960174  RH  048%=      5-min Rain = 0
KES1 241906Z 15012KT 30/18 A2976 RMK A01 T02970177  RH  049%=      5-min Rain = 0
KES1 241907Z 18009KT 30/18 A2976 RMK A01 T03010181  RH  049%=      5-min Rain = 0
KES1 241908Z 19013KT 31/18 A2976 RMK A01 T03060182  RH  048%=      5-min Rain = 0
KES1 241909Z 17013KT 31/18 A2976 RMK A01 T03080179  RH  046%=      5-min Rain = 0
KES1 241910Z 17013KT 31/18 A2976 RMK A01 T03070175  RH  045%=      5-min Rain = 0
KES1 241911Z 17010KT 30/18 A2976 RMK A01 T03030176  RH  046%=      5-min Rain = 0
KES1 241912Z 17008KT 30/18 A2976 RMK A01 T03030178  RH  047%=      5-min Rain = 0
KES1 241913Z 17013KT 31/18 A2976 RMK A01 T03050178  RH  047%=      5-min Rain = 0
KES1 241914Z 17014KT 31/18 A2976 RMK A01 T03060178  RH  046%=      5-min Rain = 0
KES1 241915Z 17012KT 31/18 A2976 RMK A01 T03060178  RH  046%=      5-min Rain = 0
KES1 241916Z 18014KT 31/18 A2976 RMK A01 T03060176  RH  046%=      5-min Rain = 0
KES1 241917Z 17012KT 31/18 A2976 RMK A01 T03050176  RH  046%=      5-min Rain = 0
KES1 241918Z 16013KT 30/18 A2976 RMK A01 T03040178  RH  047%=      5-min Rain = 0
KES1 241919Z 16011KT 31/18 A2976 RMK A01 T03050177  RH  046%=      5-min Rain = 0
KES1 241920Z 16011G18KT 31/18 A2976 RMK A01 T03050181  RH  048%=      5-min Rain = 0
KES1 241921Z 17014G20KT 31/18 A2976 RMK A01 T03070180  RH  047%=      5-min Rain = 0
KES1 241922Z 17012KT 31/18 A2976 RMK A01 T03080179  RH  046%=      5-min Rain = 0
KES1 241923Z 17008KT 31/18 A2976 RMK A01 T03080179  RH  046%=      5-min Rain = 0
KES1 241924Z 16012G20KT 31/18 A2975 RMK A01 T03070179  RH  046%=      5-min Rain = 0
KES1 241925Z 17010KT 31/18 A2975 RMK A01 T03070177  RH  046%=      5-min Rain = 0
KES1 241926Z 16012KT 31/18 A2975 RMK A01 T03060179  RH  047%=      5-min Rain = 0
KES1 241927Z 15014G19KT 31/18 A2975 RMK A01 T03060179  RH  047%=      5-min Rain = 0
KES1 241928Z 17014G19KT 31/18 A2975 RMK A01 T03070177  RH  046%=      5-min Rain = 0
KES1 241929Z 16012KT 31/18 A2975 RMK A01 T03070180  RH  047%=      5-min Rain = 0
KES1 241930Z 16014KT 31/18 A2975 RMK A01 T03070177  RH  046%=      5-min Rain = 0
KES1 241931Z 17012KT 31/18 A2975 RMK A01 T03060177  RH  046%=      5-min Rain = 0
KES1 241932Z 16014KT 30/18 A2975 RMK A01 T03040177  RH  047%=      5-min Rain = 0
KES1 241933Z 17013G18KT 30/18 A2975 RMK A01 T03030177  RH  047%=      5-min Rain = 0
KES1 241934Z 17015KT 30/18 A2975 RMK A01 T03040175  RH  046%=      5-min Rain = 0
KES1 241935Z 18011KT 31/18 A2974 RMK A01 T03050175  RH  046%=      5-min Rain = 0
KES1 241936Z 17008KT 31/18 A2974 RMK A01 T03050180  RH  047%=      5-min Rain = 0
KES1 241937Z 16009KT 31/18 A2974 RMK A01 T03070181  RH  047%=      5-min Rain = 0
KES1 241938Z 17012KT 31/18 A2974 RMK A01 T03090181  RH  046%=      5-min Rain = 0
KES1 241939Z 16007KT 31/18 A2974 RMK A01 T03090182  RH  047%=      5-min Rain = 0
KES1 241940Z 18012G21KT 31/18 A2974 RMK A01 T03110184  RH  047%=      5-min Rain = 0
KES1 241941Z 18017G22KT 31/18 A2974 RMK A01 T03120177  RH  044%=      5-min Rain = 0
KES1 241942Z 16015KT 31/18 A2974 RMK A01 T03090177  RH  045%=      5-min Rain = 0
KES1 241943Z 16012KT 31/18 A2974 RMK A01 T03080178  RH  046%=      5-min Rain = 0
KES1 241944Z 17016KT 31/18 A2974 RMK A01 T03080178  RH  046%=      5-min Rain = 0
KES1 241945Z 17013KT 31/18 A2974 RMK A01 T03080181  RH  047%=      5-min Rain = 0
KES1 241946Z 17013KT 31/18 A2974 RMK A01 T03110182  RH  046%=      5-min Rain = 0
KES1 241947Z 16013KT 31/18 A2974 RMK A01 T03120178  RH  045%=      5-min Rain = 0
KES1 241948Z 16011KT 31/18 A2974 RMK A01 T03100179  RH  046%=      5-min Rain = 0
KES1 241949Z 14011KT 31/18 A2974 RMK A01 T03090179  RH  046%=      5-min Rain = 0
KES1 241950Z 16010G17KT 31/18 A2974 RMK A01 T03100184  RH  047%=      5-min Rain = 0
KES1 241951Z 15011KT 31/18 A2974 RMK A01 T03120180  RH  045%=      5-min Rain = 0
KES1 241952Z 17011KT 31/18 A2974 RMK A01 T03120181  RH  046%=      5-min Rain = 0
KES1 241953Z 15012KT 31/18 A2974 RMK A01 T03110180  RH  046%=      5-min Rain = 0
KES1 241954Z 16016KT 31/18 A2974 RMK A01 T03110181  RH  046%=      5-min Rain = 0
KES1 241955Z 16017KT 31/18 A2974 RMK A01 T03100179  RH  046%=      5-min Rain = 0
KES1 241956Z 18014G19KT 31/18 A2974 RMK A01 T03100178  RH  045%=      5-min Rain = 0
KES1 241957Z 19009KT 31/18 A2974 RMK A01 T03110181  RH  046%=      5-min Rain = 0
KES1 241958Z 16008KT 31/19 A2974 RMK A01 T03140187  RH  047%=      5-min Rain = 0
KES1 241959Z 18010KT 32/19 A2974 RMK A01 T03180187  RH  046%=      5-min Rain = 0
KES1 242000Z 20011G16KT 32/18 A2974 RMK A01 T03200181  RH  044%=      5-min Rain = 0
KES1 242001Z 17009KT 32/18 A2974 RMK A01 T03160180  RH  044%=      5-min Rain = 0
KES1 242002Z 16008KT 32/18 A2974 RMK A01 T03150184  RH  046%=      5-min Rain = 0
KES1 242003Z 17011KT 32/18 A2974 RMK A01 T03160183  RH  045%=      5-min Rain = 0
KES1 242004Z 17011G16KT 32/18 A2974 RMK A01 T03170183  RH  045%=      5-min Rain = 0
KES1 242005Z 18011KT 32/18 A2974 RMK A01 T03170178  RH  044%=      5-min Rain = 0
KES1 242006Z 15010KT 32/18 A2974 RMK A01 T03150183  RH  045%=      5-min Rain = 0
KES1 242007Z 16010KT 32/18 A2974 RMK A01 T03150182  RH  045%=      5-min Rain = 0
KES1 242008Z 14010KT 31/18 A2973 RMK A01 T03140182  RH  045%=      5-min Rain = 0
KES1 242009Z 16010KT 32/18 A2973 RMK A01 T03150183  RH  045%=      5-min Rain = 0
KES1 242010Z 17010KT 32/18 A2974 RMK A01 T03160181  RH  045%=      5-min Rain = 0
KES1 242011Z 17013G18KT 32/18 A2973 RMK A01 T03160179  RH  044%=      5-min Rain = 0
KES1 242012Z 16011G17KT 32/18 A2973 RMK A01 T03150181  RH  045%=      5-min Rain = 0
KES1 242013Z 16015KT 32/18 A2973 RMK A01 T03150180  RH  044%=      5-min Rain = 0
KES1 242014Z 15011KT 31/18 A2973 RMK A01 T03140179  RH  045%=      5-min Rain = 0
KES1 242015Z 16011G20KT 32/19 A2973 RMK A01 T03150186  RH  046%=      5-min Rain = 0
KES1 242016Z 18011G16KT 32/19 A2973 RMK A01 T03180185  RH  045%=      5-min Rain = 0
KES1 242017Z 17010KT 32/18 A2973 RMK A01 T03190183  RH  045%=      5-min Rain = 0
KES1 242018Z 17012KT 32/18 A2973 RMK A01 T03180183  RH  045%=      5-min Rain = 0
KES1 242019Z 17009KT 32/18 A2973 RMK A01 T03160183  RH  045%=      5-min Rain = 0
KES1 242020Z 15009G15KT 32/19 A2973 RMK A01 T03160188  RH  047%=      5-min Rain = 0
KES1 242021Z 15014G19KT 32/19 A2973 RMK A01 T03170185  RH  045%=      5-min Rain = 0
KES1 242022Z 14013KT 32/18 A2973 RMK A01 T03160184  RH  045%=      5-min Rain = 0
KES1 242023Z 14014KT 32/19 A2973 RMK A01 T03160187  RH  046%=      5-min Rain = 0
KES1 242024Z 14012KT 32/19 A2973 RMK A01 T03160186  RH  046%=      5-min Rain = 0
KES1 242025Z 15012KT 32/19 A2973 RMK A01 T03180186  RH  046%=      5-min Rain = 0
KES1 242026Z 17010KT 32/19 A2973 RMK A01 T03180186  RH  045%=      5-min Rain = 0
KES1 242027Z 16010KT 32/19 A2973 RMK A01 T03190188  RH  046%=      5-min Rain = 0
KES1 242028Z 17011G18KT 32/19 A2973 RMK A01 T03200188  RH  045%=      5-min Rain = 0
KES1 242029Z 17014KT 32/18 A2973 RMK A01 T03210183  RH  044%=      5-min Rain = 0
KES1 242030Z 17012KT 32/18 A2973 RMK A01 T03200182  RH  044%=      5-min Rain = 0
KES1 242031Z 17012KT 32/18 A2973 RMK A01 T03170182  RH  045%=      5-min Rain = 0
KES1 242032Z 15008KT 32/18 A2973 RMK A01 T03150184  RH  046%=      5-min Rain = 0
KES1 242033Z 15010KT 32/19 A2972 RMK A01 T03150187  RH  046%=      5-min Rain = 0
KES1 242034Z 14014KT 31/18 A2972 RMK A01 T03140184  RH  046%=      5-min Rain = 0
KES1 242035Z 15017KT 31/18 A2972 RMK A01 T03120182  RH  046%=      5-min Rain = 0
KES1 242036Z 15017KT 31/18 A2972 RMK A01 T03110182  RH  046%=      5-min Rain = 0
KES1 242037Z 17012G17KT 31/18 A2972 RMK A01 T03120184  RH  047%=      5-min Rain = 0
KES1 242038Z 16015KT 31/19 A2972 RMK A01 T03140185  RH  046%=      5-min Rain = 0
KES1 242039Z 16013KT 32/18 A2972 RMK A01 T03160184  RH  046%=      5-min Rain = 0
KES1 242040Z 15010KT 32/19 A2972 RMK A01 T03160187  RH  046%=      5-min Rain = 0
KES1 242041Z 16012KT 32/19 A2972 RMK A01 T03160185  RH  046%=      5-min Rain = 0
KES1 242042Z 16009KT 32/18 A2972 RMK A01 T03150181  RH  045%=      5-min Rain = 0
KES1 242043Z 15007KT 31/19 A2972 RMK A01 T03140189  RH  047%=      5-min Rain = 0
KES1 242044Z 17012KT 32/19 A2972 RMK A01 T03170190  RH  047%=      5-min Rain = 0
KES1 242045Z 16013G19KT 32/19 A2972 RMK A01 T03180187  RH  046%=      5-min Rain = 0
KES1 242046Z 16014KT 32/19 A2972 RMK A01 T03180186  RH  046%=      5-min Rain = 0
KES1 242047Z 17010G16KT 32/19 A2972 RMK A01 T03160186  RH  046%=      5-min Rain = 0
KES1 242048Z 17012KT 32/19 A2971 RMK A01 T03150185  RH  046%=      5-min Rain = 0
KES1 242049Z 15014KT 31/19 A2971 RMK A01 T03140185  RH  046%=      5-min Rain = 0
KES1 242050Z 14012KT 31/19 A2971 RMK A01 T03140185  RH  046%=      5-min Rain = 0
KES1 242051Z 13010KT 31/19 A2971 RMK A01 T03140185  RH  046%=      5-min Rain = 0
KES1 242052Z 16010KT 31/19 A2971 RMK A01 T03140185  RH  046%=      5-min Rain = 0
KES1 242053Z 15007KT 31/19 A2971 RMK A01 T03140186  RH  047%=      5-min Rain = 0
KES1 242054Z 17005KT 31/19 A2971 RMK A01 T03130187  RH  047%=      5-min Rain = 0
KES1 242055Z 20011KT 32/19 A2971 RMK A01 T03150186  RH  046%=      5-min Rain = 0
KES1 242056Z 17013KT 32/19 A2971 RMK A01 T03170188  RH  046%=      5-min Rain = 0
KES1 242057Z 17009KT 32/19 A2971 RMK A01 T03180185  RH  045%=      5-min Rain = 0
KES1 242058Z 18012KT 32/19 A2971 RMK A01 T03180186  RH  046%=      5-min Rain = 0
KES1 242059Z 16012KT 32/18 A2971 RMK A01 T03180184  RH  045%=      5-min Rain = 0
KES1 242100Z 16010KT 32/19 A2971 RMK A01 T03170190  RH  047%=      5-min Rain = 0
KES1 242101Z 17008KT 32/19 A2971 RMK A01 T03200193  RH  047%=      5-min Rain = 0
KES1 242102Z 18010KT 32/19 A2971 RMK A01 T03240194  RH  046%=      5-min Rain = 0
KES1 242103Z 16010KT 32/19 A2971 RMK A01 T03240191  RH  045%=      5-min Rain = 0
KES1 242104Z 18007KT 32/18 A2971 RMK A01 T03230184  RH  044%=      5-min Rain = 0
KES1 242105Z 17008KT 32/19 A297 RMK A01 T03200185  RH  045%=      5-min Rain = 0
KES1 242106Z 20011G16KT 32/19 A297 RMK A01 T03200189  RH  046%=      5-min Rain = 0
KES1 242107Z 19008G15KT 32/19 A297 RMK A01 T03210186  RH  045%=      5-min Rain = 0
KES1 242108Z 19011KT 32/19 A297 RMK A01 T03220186  RH  045%=      5-min Rain = 0
KES1 242109Z 18014KT 32/18 A297 RMK A01 T03210184  RH  044%=      5-min Rain = 0
KES1 242110Z 16011KT 32/18 A297 RMK A01 T03190183  RH  044%=      5-min Rain = 0
KES1 242111Z 15009KT 32/18 A297 RMK A01 T03170183  RH  045%=      5-min Rain = 0
KES1 242112Z 14010G16KT 32/19 A297 RMK A01 T03170186  RH  046%=      5-min Rain = 0
KES1 242113Z 14014KT 32/19 A297 RMK A01 T03170185  RH  046%=      5-min Rain = 0
KES1 242114Z 15012KT 32/19 A297 RMK A01 T03190188  RH  046%=      5-min Rain = 0
KES1 242115Z 15013KT 32/19 A297 RMK A01 T03190186  RH  045%=      5-min Rain = 0
KES1 242116Z 14013KT 32/19 A297 RMK A01 T03190186  RH  045%=      5-min Rain = 0
KES1 242117Z 15012KT 32/19 A297 RMK A01 T03180186  RH  045%=      5-min Rain = 0
KES1 242118Z 15009KT 32/19 A297 RMK A01 T03160185  RH  046%=      5-min Rain = 0
KES1 242119Z 14009KT 32/19 A297 RMK A01 T03160191  RH  047%=      5-min Rain = 0
KES1 242120Z 14011KT 32/19 A297 RMK A01 T03190190  RH  046%=      5-min Rain = 0
KES1 242121Z 14013G19KT 32/19 A297 RMK A01 T03200191  RH  046%=      5-min Rain = 0
KES1 242122Z 14016KT 32/19 A2969 RMK A01 T03200186  RH  045%=      5-min Rain = 0
KES1 242123Z 15016KT 32/19 A297 RMK A01 T03180185  RH  045%=      5-min Rain = 0
KES1 242124Z 15009G14KT 32/19 A297 RMK A01 T03150185  RH  046%=      5-min Rain = 0
KES1 242125Z 14012G19KT 32/19 A2969 RMK A01 T03150188  RH  047%=      5-min Rain = 0
KES1 242126Z 15017KT 32/19 A2969 RMK A01 T03160187  RH  046%=      5-min Rain = 0
KES1 242127Z 14015KT 32/19 A2969 RMK A01 T03170186  RH  046%=      5-min Rain = 0
KES1 242128Z 14014KT 32/19 A2969 RMK A01 T03170186  RH  046%=      5-min Rain = 0
KES1 242129Z 16013KT 32/19 A2969 RMK A01 T03170188  RH  046%=      5-min Rain = 0
KES1 242130Z 15011KT 32/19 A2969 RMK A01 T03200188  RH  046%=      5-min Rain = 0
KES1 242131Z 15012KT 32/19 A2969 RMK A01 T03210185  RH  044%=      5-min Rain = 0
KES1 242132Z 16009KT 32/18 A2969 RMK A01 T03200184  RH  044%=      5-min Rain = 0
KES1 242133Z 16011KT 32/19 A2969 RMK A01 T03190187  RH  045%=      5-min Rain = 0
KES1 242134Z 14008KT 32/19 A2969 RMK A01 T03190191  RH  047%=      5-min Rain = 0
KES1 242135Z 14012G18KT 32/19 A2969 RMK A01 T03210190  RH  046%=      5-min Rain = 0
KES1 242136Z 14012KT 32/19 A2969 RMK A01 T03210190  RH  046%=      5-min Rain = 0
KES1 242137Z 15013KT 32/19 A2969 RMK A01 T03210191  RH  046%=      5-min Rain = 0
KES1 242138Z 14011KT 32/19 A2969 RMK A01 T03210191  RH  046%=      5-min Rain = 0
KES1 242139Z 14011KT 32/19 A2969 RMK A01 T03210192  RH  046%=      5-min Rain = 0
KES1 242140Z 14014KT 32/19 A2969 RMK A01 T03220189  RH  045%=      5-min Rain = 0
KES1 242141Z 17009KT 32/19 A2969 RMK A01 T03220190  RH  046%=      5-min Rain = 0
KES1 242142Z 15010KT 32/19 A2969 RMK A01 T03220192  RH  046%=      5-min Rain = 0
KES1 242143Z 15011KT 32/19 A2969 RMK A01 T03220188  RH  045%=      5-min Rain = 0
KES1 242144Z 15011KT 32/19 A2969 RMK A01 T03210188  RH  045%=      5-min Rain = 0
KES1 242145Z 13010KT 32/19 A2968 RMK A01 T03200187  RH  045%=      5-min Rain = 0
KES1 242146Z 13010G17KT 32/19 A2968 RMK A01 T03200191  RH  047%=      5-min Rain = 0
KES1 242147Z 14015KT 32/19 A2968 RMK A01 T03200187  RH  045%=      5-min Rain = 0
KES1 242148Z 14014KT 32/19 A2968 RMK A01 T03200187  RH  045%=      5-min Rain = 0
KES1 242149Z 14012KT 32/19 A2968 RMK A01 T03190187  RH  045%=      5-min Rain = 0
KES1 242150Z 13010KT 32/19 A2968 RMK A01 T03200188  RH  046%=      5-min Rain = 0
KES1 242151Z 13009KT 32/19 A2968 RMK A01 T03210190  RH  046%=      5-min Rain = 0
KES1 242152Z 14010KT 32/19 A2968 RMK A01 T03220188  RH  045%=      5-min Rain = 0
KES1 242153Z 14011KT 32/19 A2968 RMK A01 T03230188  RH  045%=      5-min Rain = 0
KES1 242154Z 15013KT 32/19 A2968 RMK A01 T03220185  RH  044%=      5-min Rain = 0
KES1 242155Z 16016KT 32/19 A2968 RMK A01 T03210186  RH  045%=      5-min Rain = 0
KES1 242156Z 15014KT 32/18 A2968 RMK A01 T03200184  RH  044%=      5-min Rain = 0
KES1 242157Z 15012KT 32/18 A2968 RMK A01 T03190183  RH  044%=      5-min Rain = 0
KES1 242158Z 15010KT 32/18 A2968 RMK A01 T03180184  RH  045%=      5-min Rain = 0
KES1 242159Z 16008KT 32/19 A2968 RMK A01 T03180186  RH  046%=      5-min Rain = 0
KES1 242200Z 16013KT 32/19 A2968 RMK A01 T03200187  RH  045%=      5-min Rain = 0
KES1 242201Z 17013KT 32/19 A2968 RMK A01 T03210185  RH  045%=      5-min Rain = 0
KES1 242202Z 17009KT 32/18 A2968 RMK A01 T03210183  RH  044%=      5-min Rain = 0
KES1 242203Z 16008KT 32/19 A2968 RMK A01 T03200186  RH  045%=      5-min Rain = 0
KES1 242204Z 16008KT 32/19 A2968 RMK A01 T03210188  RH  045%=      5-min Rain = 0
KES1 242205Z 14009KT 32/19 A2968 RMK A01 T03220189  RH  045%=      5-min Rain = 0
KES1 242206Z 13009KT 32/19 A2968 RMK A01 T03230186  RH  044%=      5-min Rain = 0
KES1 242207Z 14012KT 32/19 A2967 RMK A01 T03230187  RH  045%=      5-min Rain = 0
KES1 242208Z 15015KT 32/19 A2967 RMK A01 T03220187  RH  045%=      5-min Rain = 0
KES1 242209Z 14014KT 32/19 A2967 RMK A01 T03190185  RH  045%=      5-min Rain = 0
KES1 242210Z 14013KT 32/19 A2967 RMK A01 T03180187  RH  046%=      5-min Rain = 0
KES1 242211Z 15010KT 32/19 A2967 RMK A01 T03170188  RH  046%=      5-min Rain = 0
KES1 242212Z 15011KT 32/19 A2967 RMK A01 T03170190  RH  047%=      5-min Rain = 0
KES1 242213Z 14011KT 32/19 A2967 RMK A01 T03190188  RH  046%=      5-min Rain = 0
KES1 242214Z 15014KT 32/19 A2967 RMK A01 T03190188  RH  046%=      5-min Rain = 0
KES1 242215Z 15013KT 32/19 A2967 RMK A01 T03190186  RH  045%=      5-min Rain = 0
KES1 242216Z 15010KT 32/19 A2967 RMK A01 T03180185  RH  045%=      5-min Rain = 0
KES1 242217Z 16009KT 32/19 A2967 RMK A01 T03170187  RH  046%=      5-min Rain = 0
KES1 242218Z 15011KT 32/19 A2967 RMK A01 T03170189  RH  046%=      5-min Rain = 0
KES1 242219Z 15012KT 32/19 A2967 RMK A01 T03190188  RH  046%=      5-min Rain = 0
KES1 242220Z 15014KT 32/19 A2967 RMK A01 T03190188  RH  046%=      5-min Rain = 0
KES1 242221Z 14015KT 32/19 A2967 RMK A01 T03170185  RH  046%=      5-min Rain = 0
KES1 242222Z 14011KT 32/18 A2966 RMK A01 T03150184  RH  046%=      5-min Rain = 0
KES1 242223Z 13010KT 31/19 A2966 RMK A01 T03140185  RH  046%=      5-min Rain = 0
KES1 242224Z 14008KT 31/19 A2966 RMK A01 T03140188  RH  047%=      5-min Rain = 0
KES1 242225Z 15013KT 32/19 A2966 RMK A01 T03150186  RH  046%=      5-min Rain = 0
KES1 242226Z 16012KT 32/19 A2966 RMK A01 T03150187  RH  046%=      5-min Rain = 0
KES1 242227Z 14010G16KT 32/19 A2966 RMK A01 T03160190  RH  047%=      5-min Rain = 0
KES1 242228Z 14008KT 32/19 A2966 RMK A01 T03180194  RH  048%=      5-min Rain = 0
KES1 242229Z 15011KT 32/19 A2966 RMK A01 T03200189  RH  046%=      5-min Rain = 0
KES1 242230Z 15013KT 32/19 A2966 RMK A01 T03200189  RH  046%=      5-min Rain = 0
KES1 242231Z 15015KT 32/19 A2966 RMK A01 T03190187  RH  046%=      5-min Rain = 0
KES1 242232Z 15014KT 32/19 A2966 RMK A01 T03180185  RH  045%=      5-min Rain = 0
KES1 242233Z 15011KT 32/19 A2966 RMK A01 T03170186  RH  046%=      5-min Rain = 0
KES1 242234Z 14010KT 32/19 A2966 RMK A01 T03170188  RH  046%=      5-min Rain = 0
KES1 242235Z 14011KT 32/18 A2966 RMK A01 T03170184  RH  045%=      5-min Rain = 0
KES1 242236Z 14011KT 31/18 A2965 RMK A01 T03140184  RH  046%=      5-min Rain = 0
KES1 242237Z 14013KT 31/18 A2965 RMK A01 T03130184  RH  046%=      5-min Rain = 0
KES1 242238Z 15014KT 31/19 A2965 RMK A01 T03130185  RH  046%=      5-min Rain = 0
KES1 242239Z 14012G18KT 32/19 A2965 RMK A01 T03150186  RH  046%=      5-min Rain = 0
KES1 242240Z 15016KT 32/18 A2965 RMK A01 T03150184  RH  046%=      5-min Rain = 0
KES1 242241Z 13012KT 32/19 A2965 RMK A01 T03150185  RH  046%=      5-min Rain = 0
KES1 242242Z 13012KT 32/19 A2965 RMK A01 T03150185  RH  046%=      5-min Rain = 0
KES1 242243Z 15013G19KT 32/19 A2965 RMK A01 T03160188  RH  047%=      5-min Rain = 0
KES1 242244Z 13014KT 32/19 A2965 RMK A01 T03170186  RH  046%=      5-min Rain = 0
KES1 242245Z 14010KT 32/19 A2965 RMK A01 T03160186  RH  046%=      5-min Rain = 0
KES1 242246Z 14013KT 32/19 A2965 RMK A01 T03150187  RH  047%=      5-min Rain = 0
KES1 242247Z 15013KT 32/19 A2965 RMK A01 T03160187  RH  046%=      5-min Rain = 0
KES1 242248Z 15012KT 32/19 A2965 RMK A01 T03160186  RH  046%=      5-min Rain = 0
KES1 242249Z 13011G17KT 32/19 A2965 RMK A01 T03160189  RH  047%=      5-min Rain = 0
KES1 242250Z 13010KT 32/19 A2965 RMK A01 T03160189  RH  047%=      5-min Rain = 0
KES1 242251Z 13012KT 32/19 A2965 RMK A01 T03170189  RH  047%=      5-min Rain = 0
KES1 242252Z 13012KT 32/19 A2964 RMK A01 T03160185  RH  046%=      5-min Rain = 0
KES1 242253Z 12016KT 31/19 A2964 RMK A01 T03140186  RH  047%=      5-min Rain = 0
KES1 242254Z 13015KT 31/19 A2964 RMK A01 T03140185  RH  046%=      5-min Rain = 0
KES1 242255Z 14014KT 31/18 A2964 RMK A01 T03140183  RH  046%=      5-min Rain = 0
KES1 242256Z 15011G16KT 31/19 A2964 RMK A01 T03140185  RH  046%=      5-min Rain = 0
KES1 242257Z 17012KT 31/19 A2964 RMK A01 T03140185  RH  046%=      5-min Rain = 0
KES1 242258Z 16010KT 32/19 A2964 RMK A01 T03150187  RH  047%=      5-min Rain = 0
KES1 242259Z 13012G18KT 32/19 A2964 RMK A01 T03160188  RH  047%=      5-min Rain = 0
KES1 242300Z 14014KT 32/19 A2964 RMK A01 T03160187  RH  046%=      5-min Rain = 0
KES1 242301Z 14012KT 32/19 A2964 RMK A01 T03160186  RH  046%=      5-min Rain = 0
KES1 242302Z 14014KT 32/18 A2964 RMK A01 T03160184  RH  045%=      5-min Rain = 0
KES1 242303Z 13013KT 32/18 A2964 RMK A01 T03150183  RH  045%=      5-min Rain = 0
KES1 242304Z 14011KT 32/19 A2964 RMK A01 T03150185  RH  046%=      5-min Rain = 0
KES1 242305Z 14014KT 31/19 A2964 RMK A01 T03140186  RH  046%=      5-min Rain = 0
KES1 242306Z 13012G17KT 32/19 A2964 RMK A01 T03150188  RH  047%=      5-min Rain = 0
KES1 242307Z 13014KT 32/19 A2964 RMK A01 T03160185  RH  046%=      5-min Rain = 0
KES1 242308Z 14013KT 32/19 A2964 RMK A01 T03150185  RH  046%=      5-min Rain = 0
KES1 242309Z 13015KT 32/19 A2964 RMK A01 T03150186  RH  046%=      5-min Rain = 0
KES1 242310Z 12015KT 31/18 A2964 RMK A01 T03140184  RH  046%=      5-min Rain = 0
KES1 242311Z 13014KT 31/18 A2964 RMK A01 T03130184  RH  046%=      5-min Rain = 0
KES1 242312Z 14012KT 31/19 A2964 RMK A01 T03110185  RH  047%=      5-min Rain = 0
KES1 242313Z 13012KT 31/19 A2964 RMK A01 T03100185  RH  047%=      5-min Rain = 0
KES1 242314Z 13011KT 31/18 A2964 RMK A01 T03070183  RH  048%=      5-min Rain = 0
KES1 242315Z 12011KT 31/18 A2964 RMK A01 T03060184  RH  048%=      5-min Rain = 0
KES1 242316Z 13012KT 31/18 A2964 RMK A01 T03050182  RH  048%=      5-min Rain = 0
KES1 242317Z 13011KT 31/18 A2964 RMK A01 T03060181  RH  047%=      5-min Rain = 0
KES1 242318Z 14014KT 31/18 A2964 RMK A01 T03080182  RH  047%=      5-min Rain = 0
KES1 242319Z 15015KT 31/18 A2963 RMK A01 T03090181  RH  046%=      5-min Rain = 0
KES1 242320Z 14014G20KT 31/18 A2963 RMK A01 T03100182  RH  046%=      5-min Rain = 0
KES1 242321Z 14016KT 31/18 A2963 RMK A01 T03110181  RH  046%=      5-min Rain = 0
KES1 242322Z 14012G17KT 31/18 A2963 RMK A01 T03110183  RH  046%=      5-min Rain = 0
KES1 242323Z 14014KT 31/18 A2963 RMK A01 T03120182  RH  046%=      5-min Rain = 0
KES1 242324Z 14013KT 31/18 A2963 RMK A01 T03120182  RH  046%=      5-min Rain = 0
KES1 242325Z 15012KT 31/18 A2963 RMK A01 T03120183  RH  046%=      5-min Rain = 0
KES1 242326Z 15010KT 31/18 A2963 RMK A01 T03120184  RH  047%=      5-min Rain = 0
KES1 242327Z 13010KT 31/19 A2963 RMK A01 T03120185  RH  047%=      5-min Rain = 0
KES1 242328Z 12012KT 31/18 A2963 RMK A01 T03120184  RH  046%=      5-min Rain = 0
KES1 242329Z 12010KT 31/18 A2963 RMK A01 T03130184  RH  046%=      5-min Rain = 0
KES1 242330Z 12014KT 31/19 A2962 RMK A01 T03120185  RH  047%=      5-min Rain = 0
KES1 242331Z 12013KT 31/18 A2962 RMK A01 T03130184  RH  046%=      5-min Rain = 0
KES1 242332Z 13011KT 31/19 A2962 RMK A01 T03120186  RH  047%=      5-min Rain = 0
KES1 242333Z 14012G17KT 31/19 A2962 RMK A01 T03120186  RH  047%=      5-min Rain = 0
KES1 242334Z 14014KT 31/18 A2962 RMK A01 T03130184  RH  046%=      5-min Rain = 0
KES1 242335Z 14015KT 31/18 A2963 RMK A01 T03130183  RH  046%=      5-min Rain = 0
KES1 242336Z 13014KT 31/18 A2963 RMK A01 T03120182  RH  046%=      5-min Rain = 0
KES1 242337Z 14015KT 31/18 A2963 RMK A01 T03110182  RH  046%=      5-min Rain = 0
KES1 242338Z 14013KT 31/18 A2963 RMK A01 T03110183  RH  047%=      5-min Rain = 0
KES1 242339Z 14014KT 31/18 A2963 RMK A01 T03100183  RH  047%=      5-min Rain = 0
KES1 242340Z 13012KT 31/18 A2963 RMK A01 T03100183  RH  047%=      5-min Rain = 0
KES1 242341Z 14014KT 31/18 A2963 RMK A01 T03100181  RH  046%=      5-min Rain = 0
KES1 242342Z 14016KT 31/18 A2963 RMK A01 T03100182  RH  046%=      5-min Rain = 0
KES1 242343Z 14015KT 31/18 A2963 RMK A01 T03110181  RH  046%=      5-min Rain = 0
KES1 242344Z 13014G19KT 31/18 A2963 RMK A01 T03110181  RH  046%=      5-min Rain = 0
KES1 242345Z 13015KT 31/18 A2963 RMK A01 T03110181  RH  046%=      5-min Rain = 0
KES1 242346Z 14012KT 31/18 A2963 RMK A01 T03100182  RH  046%=      5-min Rain = 0
KES1 242347Z 13014KT 31/18 A2964 RMK A01 T03100181  RH  046%=      5-min Rain = 0
KES1 242348Z 13011KT 31/18 A2964 RMK A01 T03100181  RH  046%=      5-min Rain = 0
KES1 242349Z 14011G16KT 31/18 A2964 RMK A01 T03100183  RH  047%=      5-min Rain = 0
KES1 242350Z 14011KT 31/18 A2964 RMK A01 T03090182  RH  047%=      5-min Rain = 0
KES1 242351Z 13010KT 31/18 A2964 RMK A01 T03080182  RH  047%=      5-min Rain = 0
KES1 242352Z 14013KT 31/18 A2964 RMK A01 T03080183  RH  047%=      5-min Rain = 0
KES1 242353Z 14015KT 31/18 A2964 RMK A01 T03070181  RH  047%=      5-min Rain = 0
KES1 242354Z 13014KT 31/18 A2964 RMK A01 T03070181  RH  047%=      5-min Rain = 0
KES1 242355Z 12011KT 31/18 A2963 RMK A01 T03070181  RH  047%=      5-min Rain = 0
KES1 242356Z 13012KT 31/18 A2963 RMK A01 T03060182  RH  048%=      5-min Rain = 0
KES1 242357Z 12012KT 31/18 A2963 RMK A01 T03050181  RH  048%=      5-min Rain = 0
KES1 242358Z 13013G18KT 30/18 A2963 RMK A01 T03040182  RH  048%=      5-min Rain = 0
KES1 242359Z 13014KT 30/18 A2963 RMK A01 T03040181  RH  048%=      5-min Rain = 0
KES1 250000Z 13014KT 30/18 A2963 RMK A01 T03030180  RH  048%=      5-min Rain = 0
KES1 250001Z 14014KT 30/18 A2963 RMK A01 T03020180  RH  048%=      5-min Rain = 0
KES1 250002Z 13012KT 30/18 A2963 RMK A01 T03020180  RH  048%=      5-min Rain = 0
KES1 250003Z 13014KT 30/18 A2963 RMK A01 T03020179  RH  048%=      5-min Rain = 0
KES1 250004Z 13013G18KT 30/18 A2963 RMK A01 T03010179  RH  048%=      5-min Rain = 0
KES1 250005Z 13013KT 30/18 A2963 RMK A01 T03010179  RH  048%=      5-min Rain = 0
KES1 250006Z 13011KT 30/18 A2963 RMK A01 T03000179  RH  048%=      5-min Rain = 0
KES1 250007Z 13011G16KT 30/18 A2963 RMK A01 T03000179  RH  048%=      5-min Rain = 0
KES1 250008Z 13010KT 30/18 A2963 RMK A01 T03000180  RH  049%=      5-min Rain = 0
KES1 250009Z 13012G17KT 30/18 A2963 RMK A01 T03000180  RH  049%=      5-min Rain = 0
KES1 250010Z 13014KT 30/18 A2963 RMK A01 T02990179  RH  048%=      5-min Rain = 0
KES1 250011Z 13012KT 30/18 A2963 RMK A01 T02990179  RH  048%=      5-min Rain = 0
KES1 250012Z 13013G18KT 30/18 A2963 RMK A01 T03000180  RH  049%=      5-min Rain = 0
KES1 250013Z 13012G17KT 30/18 A2963 RMK A01 T03000179  RH  048%=      5-min Rain = 0
KES1 250014Z 13014KT 30/18 A2963 RMK A01 T03000178  RH  048%=      5-min Rain = 0
KES1 250015Z 13014KT 30/18 A2963 RMK A01 T03000178  RH  048%=      5-min Rain = 0
KES1 250016Z 13011G18KT 30/18 A2963 RMK A01 T03000179  RH  048%=      5-min Rain = 0
KES1 250017Z 12012KT 30/18 A2963 RMK A01 T02990178  RH  048%=      5-min Rain = 0
KES1 250018Z 13010KT 30/18 A2963 RMK A01 T02990179  RH  049%=      5-min Rain = 0
KES1 250019Z 13012KT 30/18 A2963 RMK A01 T02990179  RH  048%=      5-min Rain = 0
KES1 250020Z 13010KT 30/18 A2963 RMK A01 T02990178  RH  048%=      5-min Rain = 0
KES1 250021Z 13012KT 30/18 A2963 RMK A01 T02990179  RH  048%=      5-min Rain = 0
KES1 250022Z 13010KT 30/18 A2963 RMK A01 T02990179  RH  049%=      5-min Rain = 0
KES1 250023Z 13012G17KT 30/18 A2963 RMK A01 T02980178  RH  049%=      5-min Rain = 0
KES1 250024Z 13012G18KT 30/18 A2963 RMK A01 T02990177  RH  048%=      5-min Rain = 0
KES1 250025Z 13011KT 30/18 A2963 RMK A01 T02980177  RH  048%=      5-min Rain = 0
KES1 250026Z 13009KT 30/18 A2963 RMK A01 T02990177  RH  048%=      5-min Rain = 0
KES1 250027Z 13009KT 30/18 A2963 RMK A01 T02990178  RH  048%=      5-min Rain = 0
KES1 250028Z 13011G17KT 30/18 A2963 RMK A01 T02980178  RH  048%=      5-min Rain = 0
KES1 250029Z 13014KT 30/18 A2963 RMK A01 T02980176  RH  048%=      5-min Rain = 0
KES1 250030Z 13009KT 30/18 A2963 RMK A01 T02980177  RH  048%=      5-min Rain = 0
KES1 250031Z 14012KT 30/18 A2963 RMK A01 T02980177  RH  048%=      5-min Rain = 0
KES1 250032Z 13012KT 30/18 A2963 RMK A01 T02980176  RH  048%=      5-min Rain = 0
KES1 250033Z 13010KT 30/18 A2963 RMK A01 T02980177  RH  048%=      5-min Rain = 0
KES1 250034Z 13011KT 30/18 A2963 RMK A01 T02980177  RH  048%=      5-min Rain = 0
KES1 250035Z 14012KT 30/18 A2963 RMK A01 T02980177  RH  048%=      5-min Rain = 0
KES1 250036Z 14012KT 30/18 A2963 RMK A01 T02980176  RH  048%=      5-min Rain = 0
KES1 250037Z 14010KT 30/18 A2963 RMK A01 T02980176  RH  048%=      5-min Rain = 0
KES1 250038Z 13010KT 30/18 A2963 RMK A01 T02980177  RH  048%=      5-min Rain = 0
KES1 250039Z 13007KT 30/18 A2963 RMK A01 T02970177  RH  049%=      5-min Rain = 0
KES1 250040Z 13008KT 30/18 A2963 RMK A01 T02970178  RH  049%=      5-min Rain = 0
KES1 250041Z 13009KT 30/18 A2963 RMK A01 T02960178  RH  049%=      5-min Rain = 0
KES1 250042Z 13008KT 30/18 A2963 RMK A01 T02960177  RH  049%=      5-min Rain = 0
KES1 250043Z 13012KT 30/18 A2963 RMK A01 T02960177  RH  049%=      5-min Rain = 0
KES1 250044Z 12011KT 30/18 A2963 RMK A01 T02950177  RH  049%=      5-min Rain = 0
KES1 250045Z 13011KT 30/18 A2963 RMK A01 T02960177  RH  049%=      5-min Rain = 0
KES1 250046Z 13011KT 30/18 A2963 RMK A01 T02960177  RH  049%=      5-min Rain = 0
KES1 250047Z 13011KT 30/18 A2963 RMK A01 T02960177  RH  049%=      5-min Rain = 0
KES1 250048Z 13009KT 30/18 A2963 RMK A01 T02950177  RH  049%=      5-min Rain = 0
KES1 250049Z 13010KT 30/18 A2963 RMK A01 T02950178  RH  049%=      5-min Rain = 0
KES1 250050Z 13009KT 30/18 A2963 RMK A01 T02950178  RH  049%=      5-min Rain = 0
KES1 250051Z 12007KT 29/18 A2963 RMK A01 T02940178  RH  050%=      5-min Rain = 0
KES1 250052Z 12010KT 29/18 A2963 RMK A01 T02930179  RH  050%=      5-min Rain = 0
KES1 250053Z 13010KT 29/18 A2963 RMK A01 T02930178  RH  050%=      5-min Rain = 0
KES1 250054Z 13011KT 29/18 A2962 RMK A01 T02930178  RH  050%=      5-min Rain = 0
KES1 250055Z 13011KT 29/18 A2962 RMK A01 T02930178  RH  050%=      5-min Rain = 0
KES1 250056Z 13009KT 29/18 A2962 RMK A01 T02920179  RH  050%=      5-min Rain = 0
KES1 250057Z 13010KT 29/18 A2962 RMK A01 T02920179  RH  051%=      5-min Rain = 0
KES1 250058Z 13008KT 29/18 A2962 RMK A01 T02920179  RH  051%=      5-min Rain = 0
KES1 250059Z 13009KT 29/18 A2962 RMK A01 T02910179  RH  051%=      5-min Rain = 0
KES1 250100Z 12008KT 29/18 A2963 RMK A01 T02910179  RH  051%=      5-min Rain = 0
KES1 250101Z 12008KT 29/18 A2963 RMK A01 T02910179  RH  051%=      5-min Rain = 0
KES1 250102Z 12011KT 29/18 A2963 RMK A01 T02900179  RH  051%=      5-min Rain = 0
KES1 250103Z 13011KT 29/18 A2963 RMK A01 T02900178  RH  051%=      5-min Rain = 0
KES1 250104Z 12010KT 29/18 A2963 RMK A01 T02910179  RH  051%=      5-min Rain = 0
KES1 250105Z 13010KT 29/18 A2963 RMK A01 T02910179  RH  051%=      5-min Rain = 0
KES1 250106Z 13010KT 29/18 A2963 RMK A01 T02910180  RH  051%=      5-min Rain = 0
KES1 250107Z 13011KT 29/18 A2963 RMK A01 T02900180  RH  051%=      5-min Rain = 0
KES1 250108Z 13010KT 29/18 A2963 RMK A01 T02900179  RH  051%=      5-min Rain = 0
KES1 250109Z 12010KT 29/18 A2963 RMK A01 T02900179  RH  051%=      5-min Rain = 0
KES1 250110Z 12011KT 29/18 A2963 RMK A01 T02900180  RH  051%=      5-min Rain = 0
KES1 250111Z 12011KT 29/18 A2963 RMK A01 T02900180  RH  051%=      5-min Rain = 0
KES1 250112Z 13009KT 29/18 A2963 RMK A01 T02900180  RH  051%=      5-min Rain = 0
KES1 250113Z 12010G15KT 29/18 A2963 RMK A01 T02890180  RH  052%=      5-min Rain = 0
KES1 250114Z 12009KT 29/18 A2963 RMK A01 T02890179  RH  051%=      5-min Rain = 0
KES1 250115Z 12013KT 29/18 A2963 RMK A01 T02890179  RH  051%=      5-min Rain = 0
KES1 250116Z 12011KT 29/18 A2963 RMK A01 T02890179  RH  051%=      5-min Rain = 0
KES1 250117Z 12010KT 29/18 A2963 RMK A01 T02890180  RH  052%=      5-min Rain = 0
KES1 250118Z 12011KT 29/18 A2964 RMK A01 T02890179  RH  051%=      5-min Rain = 0
KES1 250119Z 12012KT 29/18 A2964 RMK A01 T02900180  RH  051%=      5-min Rain = 0
KES1 250120Z 12011KT 29/18 A2964 RMK A01 T02900180  RH  051%=      5-min Rain = 0
KES1 250121Z 12009KT 29/18 A2964 RMK A01 T02900180  RH  052%=      5-min Rain = 0
KES1 250122Z 11010KT 29/18 A2964 RMK A01 T02890180  RH  052%=      5-min Rain = 0
KES1 250123Z 11011KT 29/18 A2964 RMK A01 T02890180  RH  052%=      5-min Rain = 0
KES1 250124Z 12008KT 29/18 A2964 RMK A01 T02890181  RH  052%=      5-min Rain = 0
KES1 250125Z 12011KT 29/18 A2964 RMK A01 T02880181  RH  052%=      5-min Rain = 0
KES1 250126Z 11011KT 29/18 A2964 RMK A01 T02880180  RH  052%=      5-min Rain = 0
KES1 250127Z 11011KT 29/18 A2964 RMK A01 T02880180  RH  052%=      5-min Rain = 0
KES1 250128Z 11009KT 29/18 A2964 RMK A01 T02880180  RH  052%=      5-min Rain = 0
KES1 250129Z 11010KT 29/18 A2964 RMK A01 T02880180  RH  052%=      5-min Rain = 0
KES1 250130Z 11011KT 29/18 A2964 RMK A01 T02870180  RH  052%=      5-min Rain = 0
KES1 250131Z 11012KT 29/18 A2964 RMK A01 T02880180  RH  052%=      5-min Rain = 0
KES1 250132Z 11010KT 29/18 A2963 RMK A01 T02880180  RH  052%=      5-min Rain = 0
KES1 250133Z 12011KT 29/18 A2964 RMK A01 T02870180  RH  052%=      5-min Rain = 0
KES1 250134Z 11010KT 29/18 A2964 RMK A01 T02870179  RH  052%=      5-min Rain = 0
KES1 250135Z 11010KT 29/18 A2964 RMK A01 T02870178  RH  052%=      5-min Rain = 0
KES1 250136Z 12010KT 29/18 A2964 RMK A01 T02880179  RH  052%=      5-min Rain = 0
KES1 250137Z 11010KT 29/18 A2964 RMK A01 T02870179  RH  052%=      5-min Rain = 0
KES1 250138Z 11011KT 29/18 A2964 RMK A01 T02870179  RH  052%=      5-min Rain = 0
KES1 250139Z 12011KT 29/18 A2964 RMK A01 T02870178  RH  052%=      5-min Rain = 0
KES1 250140Z 11012G17KT 29/18 A2964 RMK A01 T02870179  RH  052%=      5-min Rain = 0
KES1 250141Z 11013KT 29/18 A2964 RMK A01 T02880178  RH  051%=      5-min Rain = 0
KES1 250142Z 11012G18KT 29/18 A2964 RMK A01 T02880178  RH  051%=      5-min Rain = 0
KES1 250143Z 11014G21KT 29/18 A2964 RMK A01 T02880179  RH  052%=      5-min Rain = 0
KES1 250144Z 11015G20KT 29/18 A2964 RMK A01 T02870179  RH  052%=      5-min Rain = 0
KES1 250145Z 11017KT 29/18 A2964 RMK A01 T02870180  RH  052%=      5-min Rain = 0
KES1 250146Z 11013G18KT 29/18 A2964 RMK A01 T02870181  RH  053%=      5-min Rain = 0
KES1 250147Z 11016G24KT 29/18 A2963 RMK A01 T02870181  RH  053%=      5-min Rain = 0
KES1 250148Z 11017G23KT 29/18 A2963 RMK A01 T02860182  RH  053%=      5-min Rain = 0
KES1 250149Z 11018KT 29/18 A2963 RMK A01 T02860183  RH  054%=      5-min Rain = 0
KES1 250150Z 11018G25KT 29/18 A2963 RMK A01 T02850182  RH  054%=      5-min Rain = 0
KES1 250151Z 11018G24KT 29/18 A2963 RMK A01 T02850182  RH  054%=      5-min Rain = 0
KES1 250152Z 11019G24KT 29/18 A2962 RMK A01 T02850183  RH  054%=      5-min Rain = 0
KES1 250153Z 11016KT 29/18 A2963 RMK A01 T02850183  RH  054%=      5-min Rain = 0
KES1 250154Z 10014KT 28/18 A2963 RMK A01 T02840183  RH  054%=      5-min Rain = 0
KES1 250155Z 11019G30KT 28/18 A2963 RMK A01 T02830183  RH  055%=      5-min Rain = 0
KES1 250156Z 11026G32KT 28/18 A2963 RMK A01 T02820184  RH  055%=      5-min Rain = 0
KES1 250157Z 13017G23KT 28/19 A2964 RMK A01 T02780185  RH  057%=      5-min Rain = 0
KES1 250158Z 13024G32KT 28/19 A2964 RMK A01 T02750185  RH  058%=      5-min Rain = 0
KES1 250159Z 14017G24KT 27/18 A2966 RMK A01 T02720184  RH  059%=      5-min Rain = 0
KES1 250200Z 13015G23KT 27/15 A2966 RMK A01 T02670149  RH  048%=      5-min Rain = 0
KES1 250201Z 25014G27KT 26/13 A2966 RMK A01 T02600132  RH  045%=      5-min Rain = 0
KES1 250202Z 23022G27KT 26/12 A2967 RMK A01 T02570116  RH  041%=      5-min Rain = 0
KES1 250203Z 21013G19KT 26/11 A2968 RMK A01 T02560111  RH  040%=      5-min Rain = 0
KES1 250204Z 23025G30KT 25/11 A2969 RMK A01 T02540113  RH  041%=      5-min Rain = 0
KES1 250205Z 22017G22KT 25/11 A297 RMK A01 T02520108  RH  040%=      5-min Rain = 0
KES1 250206Z 19025G32KT 25/11 A2971 RMK A01 T02500111  RH  042%=      5-min Rain = 0
KES1 250207Z 19022G27KT 25/11 A2973 RMK A01 T02450113  RH  044%=      5-min Rain = 0
KES1 250208Z 20018G24KT 24/12 A2974 RMK A01 T02400119  RH  047%=      5-min Rain = 0
KES1 250209Z 22016G22KT 23/13 A2974 RMK A01 T02340125  RH  050%=      5-min Rain = 0
KES1 250210Z 21012KT 23/13 A2975 RMK A01 T02290128  RH  053%=      5-min Rain = 0
KES1 250211Z 20014G24KT 23/13 A2976 RMK A01 T02250133  RH  056%=      5-min Rain = 0.02
KES1 250212Z 20024G30KT 21/14 A2976 RMK A01 T02110143  RH  065%=      5-min Rain = 0.01
KES1 250213Z 20027G33KT 20/15 A2977 RMK A01 T01960148  RH  074%=      5-min Rain = 0.03
KES1 250214Z 22026G31KT 19/15 A2978 RMK A01 T01850150  RH  080%=      5-min Rain = 0.04
KES1 250215Z 21018G23KT 18/15 A2978 RMK A01 T01760150  RH  085%=      5-min Rain = 0.05
KES1 250216Z 23021G28KT 17/15 A2978 RMK A01 T01700151  RH  088%=      5-min Rain = 0.07
KES1 250217Z 22023G34KT 17/15 A2977 RMK A01 T01660151  RH  091%=      5-min Rain = 0.04
KES1 250218Z 22023G30KT 16/15 A2978 RMK A01 T01630151  RH  092%=      5-min Rain = 0.03
KES1 250219Z 21022G30KT 16/15 A2979 RMK A01 T01610151  RH  094%=      5-min Rain = 0.03
KES1 250220Z 21019KT 16/15 A298 RMK A01 T01610152  RH  095%=      5-min Rain = 0.03
KES1 250221Z 21012KT 16/15 A2981 RMK A01 T01600152  RH  095%=      5-min Rain = 0.01
KES1 250222Z 21014G20KT 16/15 A2981 RMK A01 T01600153  RH  095%=      5-min Rain = 0.03
KES1 250223Z 22016G22KT 16/15 A2982 RMK A01 T01600152  RH  095%=      5-min Rain = 0.02
KES1 250224Z 22012KT 16/15 A2982 RMK A01 T01600152  RH  095%=      5-min Rain = 0.02
KES1 250225Z 22014G19KT 16/15 A2982 RMK A01 T01600153  RH  096%=      5-min Rain = 0.02
KES1 250226Z 22013KT 16/15 A2983 RMK A01 T01600153  RH  096%=      5-min Rain = 0.02
KES1 250227Z 23010KT 16/15 A2983 RMK A01 T01600153  RH  096%=      5-min Rain = 0.02
KES1 250228Z 24010KT 16/15 A2983 RMK A01 T01600153  RH  096%=      5-min Rain = 0.03
KES1 250229Z 25011KT 16/15 A2983 RMK A01 T01600153  RH  096%=      5-min Rain = 0.01
KES1 250230Z 24009KT 16/15 A2983 RMK A01 T01600153  RH  096%=      5-min Rain = 0.01
KES1 250231Z 24009KT 16/15 A2983 RMK A01 T01600153  RH  096%=      5-min Rain = 0.01
KES1 250232Z 24009KT 16/15 A2983 RMK A01 T01590153  RH  096%=      5-min Rain = 0.01
KES1 250233Z 24010KT 16/15 A2984 RMK A01 T01590153  RH  096%=      5-min Rain = 0.02
KES1 250234Z 24012KT 16/15 A2984 RMK A01 T01590154  RH  096%=      5-min Rain = 0.01
KES1 250235Z 24010KT 16/15 A2983 RMK A01 T01590153  RH  096%=      5-min Rain = 0.01
KES1 250236Z 24010KT 16/15 A2983 RMK A01 T01590154  RH  096%=      5-min Rain = 0.01
KES1 250237Z 25010KT 16/15 A2983 RMK A01 T01590153  RH  096%=      5-min Rain = 0.03
KES1 250238Z 25011KT 16/15 A2983 RMK A01 T01590154  RH  096%=      5-min Rain = 0.01
KES1 250239Z 24011KT 16/15 A2983 RMK A01 T01590154  RH  096%=      5-min Rain = 0
KES1 250240Z 25009KT 16/15 A2983 RMK A01 T01590153  RH  096%=      5-min Rain = 0.01
KES1 250241Z 25009KT 16/15 A2983 RMK A01 T01590153  RH  096%=      5-min Rain = 0.01
KES1 250242Z 25010KT 16/15 A2983 RMK A01 T01590153  RH  096%=      5-min Rain = 0
KES1 250243Z 25009KT 16/15 A2983 RMK A01 T01590153  RH  096%=      5-min Rain = 0
KES1 250244Z 25010KT 16/15 A2983 RMK A01 T01590153  RH  096%=      5-min Rain = 0.01
KES1 250245Z 25011KT 16/15 A2983 RMK A01 T01590153  RH  096%=      5-min Rain = 0
KES1 250246Z 25011KT 16/15 A2983 RMK A01 T01590153  RH  096%=      5-min Rain = 0
KES1 250247Z 26010KT 16/15 A2983 RMK A01 T01610154  RH  096%=      5-min Rain = 0.01
KES1 250248Z 27011KT 16/15 A2983 RMK A01 T01610154  RH  095%=      5-min Rain = 0
KES1 250249Z 27011KT 16/16 A2982 RMK A01 T01620155  RH  095%=      5-min Rain = 0
KES1 250250Z 27011KT 16/16 A2982 RMK A01 T01620155  RH  095%=      5-min Rain = 0
KES1 250251Z 28011KT 16/16 A2982 RMK A01 T01620155  RH  095%=      5-min Rain = 0
KES1 250252Z 29011KT 16/16 A2982 RMK A01 T01630156  RH  096%=      5-min Rain = 0
KES1 250253Z 29013KT 16/16 A2982 RMK A01 T01640158  RH  096%=      5-min Rain = 0.01
KES1 250254Z 29013KT 17/16 A2981 RMK A01 T01650159  RH  096%=      5-min Rain = 0
KES1 250255Z 29015KT 17/16 A2981 RMK A01 T01660160  RH  096%=      5-min Rain = 0
KES1 250256Z 30015KT 17/16 A2981 RMK A01 T01670160  RH  096%=      5-min Rain = 0
KES1 250257Z 29013KT 17/16 A2982 RMK A01 T01680160  RH  095%=      5-min Rain = 0
KES1 250258Z 30015KT 17/16 A2982 RMK A01 T01680160  RH  095%=      5-min Rain = 0
KES1 250259Z 30014KT 17/16 A2982 RMK A01 T01690161  RH  095%=      5-min Rain = 0
KES1 250300Z 29014KT 17/16 A2982 RMK A01 T01690161  RH  095%=      5-min Rain = 0
KES1 250301Z 29013KT 17/16 A2982 RMK A01 T01700162  RH  095%=      5-min Rain = 0
KES1 250302Z 29011KT 17/16 A2982 RMK A01 T01690161  RH  095%=      5-min Rain = 0
KES1 250303Z 29011KT 17/16 A2982 RMK A01 T01690160  RH  095%=      5-min Rain = 0
KES1 250304Z 29010KT 17/16 A2983 RMK A01 T01680159  RH  094%=      5-min Rain = 0
KES1 250305Z 28011KT 17/16 A2983 RMK A01 T01670158  RH  094%=      5-min Rain = 0
KES1 250306Z 28009KT 17/16 A2983 RMK A01 T01660156  RH  093%=      5-min Rain = 0
KES1 250307Z 27009KT 17/16 A2983 RMK A01 T01660155  RH  093%=      5-min Rain = 0.01
KES1 250308Z 28007KT 17/15 A2983 RMK A01 T01660154  RH  093%=      5-min Rain = 0
KES1 250309Z 28008KT 17/15 A2983 RMK A01 T01650154  RH  093%=      5-min Rain = 0
KES1 250310Z 28007KT 17/15 A2983 RMK A01 T01650154  RH  093%=      5-min Rain = 0
KES1 250311Z 28007KT 17/15 A2983 RMK A01 T01650154  RH  093%=      5-min Rain = 0
KES1 250312Z 28007KT 17/15 A2983 RMK A01 T01650154  RH  093%=      5-min Rain = 0
KES1 250313Z 29007KT 16/15 A2983 RMK A01 T01640153  RH  093%=      5-min Rain = 0
KES1 250314Z 29006KT 16/15 A2983 RMK A01 T01640154  RH  093%=      5-min Rain = 0.02
KES1 250315Z 30006KT 16/15 A2984 RMK A01 T01640154  RH  094%=      5-min Rain = 0
KES1 250316Z 30006KT 16/16 A2984 RMK A01 T01640155  RH  094%=      5-min Rain = 0
KES1 250317Z 31005KT 17/16 A2984 RMK A01 T01650156  RH  094%=      5-min Rain = 0
KES1 250318Z 32005KT 17/16 A2984 RMK A01 T01650156  RH  095%=      5-min Rain = 0
KES1 250319Z 33004KT 17/16 A2984 RMK A01 T01650157  RH  095%=      5-min Rain = 0.01
KES1 250320Z 34005KT 17/16 A2984 RMK A01 T01660158  RH  095%=      5-min Rain = 0
KES1 250321Z 35006KT 17/16 A2984 RMK A01 T01670159  RH  095%=      5-min Rain = 0
KES1 250322Z 36007KT 17/16 A2984 RMK A01 T01670158  RH  095%=      5-min Rain = 0
KES1 250323Z 00007KT 17/16 A2984 RMK A01 T01680159  RH  094%=      5-min Rain = 0
KES1 250324Z 00008KT 17/16 A2984 RMK A01 T01670158  RH  094%=      5-min Rain = 0.01
KES1 250325Z 01008KT 17/16 A2984 RMK A01 T01670159  RH  095%=      5-min Rain = 0
KES1 250326Z 01009KT 17/16 A2984 RMK A01 T01670159  RH  095%=      5-min Rain = 0
KES1 250327Z 00007KT 17/16 A2984 RMK A01 T01670158  RH  095%=      5-min Rain = 0
KES1 250328Z 36006KT 17/16 A2984 RMK A01 T01660158  RH  095%=      5-min Rain = 0.01
KES1 250329Z 35006KT 17/16 A2984 RMK A01 T01660158  RH  095%=      5-min Rain = 0
KES1 250330Z 34005KT 17/16 A2984 RMK A01 T01650157  RH  095%=      5-min Rain = 0
KES1 250331Z 32004KT 17/16 A2984 RMK A01 T01660158  RH  095%=      5-min Rain = 0
KES1 250332Z 27003KT 17/16 A2984 RMK A01 T01660158  RH  095%=      5-min Rain = 0.01
KES1 250333Z 25006KT 17/16 A2985 RMK A01 T01660158  RH  095%=      5-min Rain = 0
KES1 250334Z 25007KT 17/16 A2985 RMK A01 T01650158  RH  095%=      5-min Rain = 0
KES1 250335Z 26005KT 16/16 A2985 RMK A01 T01640157  RH  095%=      5-min Rain = 0
KES1 250336Z 25005KT 16/16 A2985 RMK A01 T01640157  RH  095%=      5-min Rain = 0.01
KES1 250337Z 25004KT 16/16 A2985 RMK A01 T01640157  RH  095%=      5-min Rain = 0.01
KES1 250338Z 27002KT 16/16 A2985 RMK A01 T01640157  RH  096%=      5-min Rain = 0
KES1 250339Z 30003KT 16/16 A2984 RMK A01 T01640157  RH  096%=      5-min Rain = 0.01
KES1 250340Z 31002KT 16/16 A2984 RMK A01 T01640158  RH  096%=      5-min Rain = 0
KES1 250341Z 31002KT 16/16 A2985 RMK A01 T01640158  RH  096%=      5-min Rain = 0
KES1 250342Z 32003KT 16/16 A2985 RMK A01 T01640158  RH  096%=      5-min Rain = 0
KES1 250343Z 33003KT 16/16 A2984 RMK A01 T01640159  RH  096%=      5-min Rain = 0.01
KES1 250344Z 36002KT 16/16 A2984 RMK A01 T01640158  RH  096%=      5-min Rain = 0
KES1 250345Z 01003KT 17/16 A2984 RMK A01 T01650159  RH  096%=      5-min Rain = 0
KES1 250346Z 02004KT 17/16 A2984 RMK A01 T01650160  RH  096%=      5-min Rain = 0
KES1 250347Z 03005KT 17/16 A2984 RMK A01 T01650159  RH  096%=      5-min Rain = 0
KES1 250348Z 03006KT 17/16 A2984 RMK A01 T01650159  RH  096%=      5-min Rain = 0
KES1 250349Z 04007KT 17/16 A2984 RMK A01 T01650160  RH  096%=      5-min Rain = 0.02
KES1 250350Z 04008KT 17/16 A2983 RMK A01 T01650159  RH  096%=      5-min Rain = 0
KES1 250351Z 04009KT 17/16 A2983 RMK A01 T01650159  RH  096%=      5-min Rain = 0.01
KES1 250352Z 04010KT 16/16 A2983 RMK A01 T01640159  RH  096%=      5-min Rain = 0
KES1 250353Z 04011KT 16/16 A2983 RMK A01 T01630157  RH  096%=      5-min Rain = 0
KES1 250354Z 04008KT 16/16 A2983 RMK A01 T01630156  RH  096%=      5-min Rain = 0.01
KES1 250355Z 03008KT 16/16 A2983 RMK A01 T01620156  RH  096%=      5-min Rain = 0
KES1 250356Z 03008KT 16/16 A2983 RMK A01 T01620156  RH  096%=      5-min Rain = 0
KES1 250357Z 03007KT 16/16 A2984 RMK A01 T01620156  RH  096%=      5-min Rain = 0.01
KES1 250358Z 04006KT 16/16 A2984 RMK A01 T01610155  RH  096%=      5-min Rain = 0
KES1 250359Z 05005KT 16/15 A2984 RMK A01 T01610154  RH  096%=      5-min Rain = 0
KES1 250400Z 05005KT 16/15 A2984 RMK A01 T01610154  RH  096%=      5-min Rain = 0.01
KES1 250401Z 05008KT 16/15 A2983 RMK A01 T01610154  RH  096%=      5-min Rain = 0
KES1 250402Z 05008KT 16/15 A2983 RMK A01 T01610153  RH  096%=      5-min Rain = 0.02
KES1 250403Z 05009KT 16/15 A2983 RMK A01 T01610154  RH  095%=      5-min Rain = 0
KES1 250404Z 06010KT 16/15 A2983 RMK A01 T01600153  RH  095%=      5-min Rain = 0
KES1 250405Z 05011KT 16/15 A2983 RMK A01 T01610153  RH  095%=      5-min Rain = 0.01
KES1 250406Z 06011KT 16/15 A2983 RMK A01 T01610153  RH  095%=      5-min Rain = 0
KES1 250407Z 07011KT 16/15 A2983 RMK A01 T01610152  RH  095%=      5-min Rain = 0
KES1 250408Z 07011KT 16/15 A2983 RMK A01 T01610152  RH  095%=      5-min Rain = 0
KES1 250409Z 08012KT 16/15 A2983 RMK A01 T01610152  RH  095%=      5-min Rain = 0.01
KES1 250410Z 08012KT 16/15 A2983 RMK A01 T01610152  RH  095%=      5-min Rain = 0
KES1 250411Z 09012KT 16/15 A2983 RMK A01 T01610152  RH  095%=      5-min Rain = 0
KES1 250412Z 09012KT 16/15 A2983 RMK A01 T01610152  RH  095%=      5-min Rain = 0
KES1 250413Z 09011KT 16/15 A2983 RMK A01 T01600152  RH  095%=      5-min Rain = 0
KES1 250414Z 10012KT 16/15 A2983 RMK A01 T01600152  RH  095%=      5-min Rain = 0.01
KES1 250415Z 09012KT 16/15 A2984 RMK A01 T01590151  RH  095%=      5-min Rain = 0
KES1 250416Z 09012KT 16/15 A2984 RMK A01 T01580149  RH  094%=      5-min Rain = 0
KES1 250417Z 09011KT 16/15 A2984 RMK A01 T01580149  RH  094%=      5-min Rain = 0
KES1 250418Z 08012KT 16/15 A2984 RMK A01 T01580149  RH  094%=      5-min Rain = 0
KES1 250419Z 09013KT 16/15 A2984 RMK A01 T01580149  RH  094%=      5-min Rain = 0
KES1 250420Z 09013KT 16/15 A2984 RMK A01 T01580149  RH  094%=      5-min Rain = 0.01
KES1 250421Z 08012KT 16/15 A2984 RMK A01 T01580149  RH  094%=      5-min Rain = 0
KES1 250422Z 08013KT 16/15 A2984 RMK A01 T01580149  RH  094%=      5-min Rain = 0
KES1 250423Z 08013KT 16/15 A2984 RMK A01 T01590150  RH  094%=      5-min Rain = 0
KES1 250424Z 09012KT 16/15 A2984 RMK A01 T01590150  RH  095%=      5-min Rain = 0
KES1 250425Z 09014KT 16/15 A2984 RMK A01 T01590150  RH  095%=      5-min Rain = 0
KES1 250426Z 09014KT 16/15 A2984 RMK A01 T01590150  RH  095%=      5-min Rain = 0.02
KES1 250427Z 09014KT 16/15 A2984 RMK A01 T01590151  RH  095%=      5-min Rain = 0
KES1 250428Z 09012KT 16/15 A2984 RMK A01 T01590150  RH  095%=      5-min Rain = 0
KES1 250429Z 09014G20KT 16/15 A2985 RMK A01 T01590150  RH  094%=      5-min Rain = 0
KES1 250430Z 08014KT 16/15 A2985 RMK A01 T01590150  RH  094%=      5-min Rain = 0
KES1 250431Z 08015KT 16/15 A2985 RMK A01 T01590149  RH  094%=      5-min Rain = 0
KES1 250432Z 08016KT 16/15 A2985 RMK A01 T01580149  RH  094%=      5-min Rain = 0
KES1 250433Z 08015KT 16/15 A2985 RMK A01 T01580149  RH  094%=      5-min Rain = 0.01
KES1 250434Z 09013KT 16/15 A2986 RMK A01 T01570149  RH  095%=      5-min Rain = 0
KES1 250435Z 09019KT 16/15 A2985 RMK A01 T01570149  RH  095%=      5-min Rain = 0
KES1 250436Z 09018KT 16/15 A2985 RMK A01 T01560148  RH  095%=      5-min Rain = 0.01
KES1 250437Z 08021KT 16/15 A2985 RMK A01 T01560148  RH  095%=      5-min Rain = 0
KES1 250438Z 08020KT 16/15 A2985 RMK A01 T01550146  RH  095%=      5-min Rain = 0
KES1 250439Z 08022KT 16/15 A2985 RMK A01 T01550146  RH  095%=      5-min Rain = 0.01
KES1 250440Z 08019G24KT 15/15 A2985 RMK A01 T01540145  RH  094%=      5-min Rain = 0
KES1 250441Z 08018KT 15/15 A2985 RMK A01 T01540145  RH  095%=      5-min Rain = 0
KES1 250442Z 08017KT 15/15 A2986 RMK A01 T01540145  RH  095%=      5-min Rain = 0.01
KES1 250443Z 08016KT 15/15 A2986 RMK A01 T01530145  RH  095%=      5-min Rain = 0.01
KES1 250444Z 09015KT 15/15 A2986 RMK A01 T01530145  RH  095%=      5-min Rain = 0
KES1 250445Z 08012G19KT 15/15 A2986 RMK A01 T01530145  RH  095%=      5-min Rain = 0.01
KES1 250446Z 09016KT 15/15 A2986 RMK A01 T01520145  RH  095%=      5-min Rain = 0
KES1 250447Z 09018G24KT 15/14 A2986 RMK A01 T01520144  RH  095%=      5-min Rain = 0
KES1 250448Z 08019KT 15/14 A2986 RMK A01 T01520143  RH  095%=      5-min Rain = 0
KES1 250449Z 09017KT 15/14 A2986 RMK A01 T01510143  RH  095%=      5-min Rain = 0.01
KES1 250450Z 09017KT 15/14 A2987 RMK A01 T01510143  RH  095%=      5-min Rain = 0
KES1 250451Z 09016G22KT 15/14 A2987 RMK A01 T01510143  RH  095%=      5-min Rain = 0
KES1 250452Z 09015KT 15/14 A2986 RMK A01 T01510143  RH  095%=      5-min Rain = 0.01
KES1 250453Z 09014KT 15/14 A2986 RMK A01 T01510143  RH  095%=      5-min Rain = 0
KES1 250454Z 09018KT 15/14 A2986 RMK A01 T01510143  RH  095%=      5-min Rain = 0
KES1 250455Z 09020KT 15/14 A2985 RMK A01 T01510142  RH  095%=      5-min Rain = 0
KES1 250456Z 09015G20KT 15/14 A2986 RMK A01 T01510142  RH  095%=      5-min Rain = 0.02
KES1 250457Z 09018KT 15/14 A2986 RMK A01 T01510142  RH  095%=      5-min Rain = 0
KES1 250458Z 09017KT 15/14 A2986 RMK A01 T01510142  RH  095%=      5-min Rain = 0
KES1 250459Z 09015G20KT 15/14 A2986 RMK A01 T01510142  RH  095%=      5-min Rain = 0.01

Page generated in 0.1444 seconds.